<?xml version="1.0" encoding="UTF-8"?>
<gpx creator="Garmin Connect" version="1.1"
  xsi:schemaLocation="http://www.topografix.com/GPX/1/1 http://www.topografix.com/GPX/11.xsd"
  xmlns:ns3="http://www.garmin.com/xmlschemas/TrackPointExtension/v1"
  xmlns="http://www.topografix.com/GPX/1/1"
  xmlns:xsi="http://www.w3.org/2001/XMLSchema-instance" xmlns:ns2="http://www.garmin.com/xmlschemas/GpxExtensions/v3">
  <metadata>
    <name>S - Dag 7</name>
    <link href="connect.garmin.com">
      <text>Garmin Connect</text>
    </link>
    <time>2025-01-27T11:39:53.000Z</time>
  </metadata>
  <wpt lat="58.72894535084495" lon="16.84142112237926">
    <ele>0.0</ele>
    <name>Etappe 36:3</name>
    <type>TRANSITION</type>
  </wpt>
  <wpt lat="58.7291094380794" lon="16.91106843390236">
    <ele>0.0</ele>
    <name>Etappe 44</name>
    <type>TRANSITION</type>
  </wpt>
  <wpt lat="58.73108461663164" lon="16.92646264014382">
    <ele>0.0</ele>
    <name>Watertap</name>
    <type>WATER</type>
  </wpt>
  <wpt lat="58.74672835595079" lon="16.97235134197749">
    <ele>0.0</ele>
    <name>Etappe 44:2</name>
    <type>TRANSITION</type>
  </wpt>
  <wpt lat="58.75560864483036" lon="16.99527484418615">
    <ele>0.0</ele>
    <name>Trein</name>
    <type>TRANSPORT</type>
  </wpt>
  <trk>
    <name>S - Dag 7</name>
    <trkseg>
      <trkpt lat="58.72399901971221" lon="16.826390409842134">
        <ele>39.61</ele>
        <time>2025-01-27T11:39:53.000Z</time>
      </trkpt>
      <trkpt lat="58.72403020039201" lon="16.82682073675096">
        <ele>40.0</ele>
        <time>2025-01-27T11:39:53.030Z</time>
      </trkpt>
      <trkpt lat="58.72406112961471" lon="16.82724821381271">
        <ele>40.66</ele>
        <time>2025-01-27T11:39:53.090Z</time>
      </trkpt>
      <trkpt lat="58.72406791895628" lon="16.827341923490167">
        <ele>41.29</ele>
        <time>2025-01-27T11:39:53.157Z</time>
      </trkpt>
      <trkpt lat="58.72399893589318" lon="16.827695975080132">
        <ele>42.01</ele>
        <time>2025-01-27T11:39:53.250Z</time>
      </trkpt>
      <trkpt lat="58.72388318181038" lon="16.827978193759918">
        <ele>42.83</ele>
        <time>2025-01-27T11:39:53.368Z</time>
      </trkpt>
      <trkpt lat="58.72376793064177" lon="16.828258987516165">
        <ele>43.66</ele>
        <time>2025-01-27T11:39:53.511Z</time>
      </trkpt>
      <trkpt lat="58.72369794175029" lon="16.828532991930842">
        <ele>44.5</ele>
        <time>2025-01-27T11:39:53.675Z</time>
      </trkpt>
      <trkpt lat="58.7236369214952" lon="16.82863499969244">
        <ele>45.37</ele>
        <time>2025-01-27T11:39:53.850Z</time>
      </trkpt>
      <trkpt lat="58.7235779967159" lon="16.82902098633349">
        <ele>46.29</ele>
        <time>2025-01-27T11:39:54.053Z</time>
      </trkpt>
      <trkpt lat="58.7235779967159" lon="16.829143948853016">
        <ele>47.19</ele>
        <time>2025-01-27T11:39:54.264Z</time>
      </trkpt>
      <trkpt lat="58.72351395897567" lon="16.829513926059008">
        <ele>48.1</ele>
        <time>2025-01-27T11:39:54.503Z</time>
      </trkpt>
      <trkpt lat="58.72353047132492" lon="16.829848028719425">
        <ele>49.16</ele>
        <time>2025-01-27T11:39:54.765Z</time>
      </trkpt>
      <trkpt lat="58.72354698367417" lon="16.830179952085018">
        <ele>50.33</ele>
        <time>2025-01-27T11:39:55.050Z</time>
      </trkpt>
      <trkpt lat="58.72353399172425" lon="16.83046393096447">
        <ele>51.53</ele>
        <time>2025-01-27T11:39:55.355Z</time>
      </trkpt>
      <trkpt lat="58.72355595231056" lon="16.83084991760552">
        <ele>52.9</ele>
        <time>2025-01-27T11:39:55.687Z</time>
      </trkpt>
      <trkpt lat="58.72365896590054" lon="16.831048987805843">
        <ele>53.89</ele>
        <time>2025-01-27T11:39:56.038Z</time>
      </trkpt>
      <trkpt lat="58.72379492036998" lon="16.83125794865191">
        <ele>54.64</ele>
        <time>2025-01-27T11:39:56.413Z</time>
      </trkpt>
      <trkpt lat="58.72394294477999" lon="16.831649970263243">
        <ele>55.35</ele>
        <time>2025-01-27T11:39:56.821Z</time>
      </trkpt>
      <trkpt lat="58.72406599111855" lon="16.832002932205796">
        <ele>55.94</ele>
        <time>2025-01-27T11:39:57.259Z</time>
      </trkpt>
      <trkpt lat="58.72410396113992" lon="16.83207292109728">
        <ele>56.45</ele>
        <time>2025-01-27T11:39:57.704Z</time>
      </trkpt>
      <trkpt lat="58.72415198944509" lon="16.832340974360704">
        <ele>56.95</ele>
        <time>2025-01-27T11:39:58.169Z</time>
      </trkpt>
      <trkpt lat="58.724204963073134" lon="16.832405934110284">
        <ele>57.35</ele>
        <time>2025-01-27T11:39:58.642Z</time>
      </trkpt>
      <trkpt lat="58.72427696362138" lon="16.832861993461847">
        <ele>57.91</ele>
        <time>2025-01-27T11:39:59.148Z</time>
      </trkpt>
      <trkpt lat="58.72432691976428" lon="16.83295293711126">
        <ele>58.32</ele>
        <time>2025-01-27T11:39:59.663Z</time>
      </trkpt>
      <trkpt lat="58.724399926140904" lon="16.833295924589038">
        <ele>58.8</ele>
        <time>2025-01-27T11:40:00.204Z</time>
      </trkpt>
      <trkpt lat="58.72438592836261" lon="16.833499940112233">
        <ele>59.38</ele>
        <time>2025-01-27T11:40:00.759Z</time>
      </trkpt>
      <trkpt lat="58.72441099025309" lon="16.833805963397026">
        <ele>59.92</ele>
        <time>2025-01-27T11:40:01.336Z</time>
      </trkpt>
      <trkpt lat="58.72445499524474" lon="16.833864971995354">
        <ele>60.32</ele>
        <time>2025-01-27T11:40:01.920Z</time>
      </trkpt>
      <trkpt lat="58.72449195943773" lon="16.834057923406363">
        <ele>60.75</ele>
        <time>2025-01-27T11:40:02.518Z</time>
      </trkpt>
      <trkpt lat="58.72449195943773" lon="16.834148950874805">
        <ele>61.14</ele>
        <time>2025-01-27T11:40:03.123Z</time>
      </trkpt>
      <trkpt lat="58.72454199939966" lon="16.834320947527885">
        <ele>61.48</ele>
        <time>2025-01-27T11:40:03.741Z</time>
      </trkpt>
      <trkpt lat="58.72456043958664" lon="16.83451951481402">
        <ele>61.82</ele>
        <time>2025-01-27T11:40:04.374Z</time>
      </trkpt>
      <trkpt lat="58.72455993667245" lon="16.834518928080797">
        <ele>62.07</ele>
        <time>2025-01-27T11:40:05.007Z</time>
      </trkpt>
      <trkpt lat="58.72457795776427" lon="16.834706934168935">
        <ele>62.34</ele>
        <time>2025-01-27T11:40:05.653Z</time>
      </trkpt>
      <trkpt lat="58.724660938605666" lon="16.83486795052886">
        <ele>62.49</ele>
        <time>2025-01-27T11:40:06.315Z</time>
      </trkpt>
      <trkpt lat="58.72464794665575" lon="16.835307916626334">
        <ele>62.76</ele>
        <time>2025-01-27T11:40:07.007Z</time>
      </trkpt>
      <trkpt lat="58.72458893805742" lon="16.835430962964892">
        <ele>62.84</ele>
        <time>2025-01-27T11:40:07.711Z</time>
      </trkpt>
      <trkpt lat="58.724591955542564" lon="16.835581921041012">
        <ele>62.84</ele>
        <time>2025-01-27T11:40:08.425Z</time>
      </trkpt>
      <trkpt lat="58.72456395998597" lon="16.835817955434322">
        <ele>62.72</ele>
        <time>2025-01-27T11:40:09.156Z</time>
      </trkpt>
      <trkpt lat="58.7246279977262" lon="16.835935972630978">
        <ele>62.45</ele>
        <time>2025-01-27T11:40:09.899Z</time>
      </trkpt>
      <trkpt lat="58.724699998274446" lon="16.83630594983697">
        <ele>62.1</ele>
        <time>2025-01-27T11:40:10.670Z</time>
      </trkpt>
      <trkpt lat="58.72478096745908" lon="16.83634894900024">
        <ele>61.7</ele>
        <time>2025-01-27T11:40:11.452Z</time>
      </trkpt>
      <trkpt lat="58.72503192164004" lon="16.836299998685718">
        <ele>61.05</ele>
        <time>2025-01-27T11:40:12.268Z</time>
      </trkpt>
      <trkpt lat="58.72514893300831" lon="16.836364958435297">
        <ele>60.51</ele>
        <time>2025-01-27T11:40:13.100Z</time>
      </trkpt>
      <trkpt lat="58.72522093355656" lon="16.83656293898821">
        <ele>60.01</ele>
        <time>2025-01-27T11:40:13.949Z</time>
      </trkpt>
      <trkpt lat="58.72531598433852" lon="16.836745999753475">
        <ele>59.54</ele>
        <time>2025-01-27T11:40:14.816Z</time>
      </trkpt>
      <trkpt lat="58.725429978221655" lon="16.837238939478993">
        <ele>59.07</ele>
        <time>2025-01-27T11:40:15.720Z</time>
      </trkpt>
      <trkpt lat="58.72556693851948" lon="16.837517973035574">
        <ele>58.51</ele>
        <time>2025-01-27T11:40:16.651Z</time>
      </trkpt>
      <trkpt lat="58.725599963217974" lon="16.83770597912371">
        <ele>58.09</ele>
        <time>2025-01-27T11:40:17.596Z</time>
      </trkpt>
      <trkpt lat="58.725582947954535" lon="16.838032957166433">
        <ele>57.75</ele>
        <time>2025-01-27T11:40:18.563Z</time>
      </trkpt>
      <trkpt lat="58.725602980703115" lon="16.83815097436309">
        <ele>57.43</ele>
        <time>2025-01-27T11:40:19.539Z</time>
      </trkpt>
      <trkpt lat="58.725560987368226" lon="16.838247952982783">
        <ele>57.17</ele>
        <time>2025-01-27T11:40:20.524Z</time>
      </trkpt>
      <trkpt lat="58.725563921034336" lon="16.838644919916987">
        <ele>56.96</ele>
        <time>2025-01-27T11:40:21.536Z</time>
      </trkpt>
      <trkpt lat="58.72560457326472" lon="16.8390086106956">
        <ele>56.85</ele>
        <time>2025-01-27T11:40:22.574Z</time>
      </trkpt>
      <trkpt lat="58.725644974038005" lon="16.839369954541326">
        <ele>56.68</ele>
        <time>2025-01-27T11:40:23.638Z</time>
      </trkpt>
      <trkpt lat="58.725754944607615" lon="16.839839927852154">
        <ele>56.4</ele>
        <time>2025-01-27T11:40:24.738Z</time>
      </trkpt>
      <trkpt lat="58.725795932114124" lon="16.839972948655486">
        <ele>56.05</ele>
        <time>2025-01-27T11:40:25.849Z</time>
      </trkpt>
      <trkpt lat="58.72585695236921" lon="16.840029945597053">
        <ele>55.63</ele>
        <time>2025-01-27T11:40:26.969Z</time>
      </trkpt>
      <trkpt lat="58.725947979837656" lon="16.839899942278862">
        <ele>55.15</ele>
        <time>2025-01-27T11:40:28.104Z</time>
      </trkpt>
      <trkpt lat="58.726031966507435" lon="16.839432986453176">
        <ele>54.57</ele>
        <time>2025-01-27T11:40:29.273Z</time>
      </trkpt>
      <trkpt lat="58.72614897787571" lon="16.839255960658193">
        <ele>53.9</ele>
        <time>2025-01-27T11:40:30.462Z</time>
      </trkpt>
      <trkpt lat="58.726376965641975" lon="16.839041970670223">
        <ele>53.04</ele>
        <time>2025-01-27T11:40:31.685Z</time>
      </trkpt>
      <trkpt lat="58.726460952311754" lon="16.839019926264882">
        <ele>52.26</ele>
        <time>2025-01-27T11:40:32.919Z</time>
      </trkpt>
      <trkpt lat="58.726527923718095" lon="16.839048927649856">
        <ele>51.48</ele>
        <time>2025-01-27T11:40:34.162Z</time>
      </trkpt>
      <trkpt lat="58.726529935374856" lon="16.839042892679572">
        <ele>50.72</ele>
        <time>2025-01-27T11:40:35.406Z</time>
      </trkpt>
      <trkpt lat="58.726527923718095" lon="16.839048927649856">
        <ele>51.48</ele>
        <time>2025-01-27T11:40:36.650Z</time>
      </trkpt>
      <trkpt lat="58.726571928709745" lon="16.839067954570055">
        <ele>49.14</ele>
        <time>2025-01-27T11:40:37.900Z</time>
      </trkpt>
      <trkpt lat="58.726739985868335" lon="16.838981956243515">
        <ele>48.24</ele>
        <time>2025-01-27T11:40:39.174Z</time>
      </trkpt>
      <trkpt lat="58.72684199362993" lon="16.8388859834522">
        <ele>47.38</ele>
        <time>2025-01-27T11:40:40.463Z</time>
      </trkpt>
      <trkpt lat="58.72703393921256" lon="16.83867392130196">
        <ele>46.44</ele>
        <time>2025-01-27T11:40:41.781Z</time>
      </trkpt>
      <trkpt lat="58.7271579913795" lon="16.838641986250877">
        <ele>45.72</ele>
        <time>2025-01-27T11:40:43.116Z</time>
      </trkpt>
      <trkpt lat="58.727340968325734" lon="16.838515922427177">
        <ele>45.04</ele>
        <time>2025-01-27T11:40:44.477Z</time>
      </trkpt>
      <trkpt lat="58.72744398191571" lon="16.838488932698965">
        <ele>44.49</ele>
        <time>2025-01-27T11:40:45.852Z</time>
      </trkpt>
      <trkpt lat="58.72757691890001" lon="16.838274942710996">
        <ele>43.94</ele>
        <time>2025-01-27T11:40:47.250Z</time>
      </trkpt>
      <trkpt lat="58.72769694775343" lon="16.837957939133048">
        <ele>43.42</ele>
        <time>2025-01-27T11:40:48.675Z</time>
      </trkpt>
      <trkpt lat="58.727774983271956" lon="16.83779197745025">
        <ele>43.13</ele>
        <time>2025-01-27T11:40:50.116Z</time>
      </trkpt>
      <trkpt lat="58.72776894830167" lon="16.83761495165527">
        <ele>42.92</ele>
        <time>2025-01-27T11:40:51.569Z</time>
      </trkpt>
      <trkpt lat="58.72778898105025" lon="16.83752895332873">
        <ele>42.84</ele>
        <time>2025-01-27T11:40:53.029Z</time>
      </trkpt>
      <trkpt lat="58.7278279569" lon="16.837587961927056">
        <ele>42.89</ele>
        <time>2025-01-27T11:40:54.496Z</time>
      </trkpt>
      <trkpt lat="58.72782594524324" lon="16.83761998079717">
        <ele>43.0</ele>
        <time>2025-01-27T11:40:55.965Z</time>
      </trkpt>
      <trkpt lat="58.72779996134341" lon="16.83802197687328">
        <ele>43.27</ele>
        <time>2025-01-27T11:40:57.462Z</time>
      </trkpt>
      <trkpt lat="58.72780599631369" lon="16.838569985702634">
        <ele>43.71</ele>
        <time>2025-01-27T11:40:58.997Z</time>
      </trkpt>
      <trkpt lat="58.72791395522654" lon="16.838890928775072">
        <ele>43.93</ele>
        <time>2025-01-27T11:41:00.559Z</time>
      </trkpt>
      <trkpt lat="58.72789199464023" lon="16.83915998786688">
        <ele>44.2</ele>
        <time>2025-01-27T11:41:02.140Z</time>
      </trkpt>
      <trkpt lat="58.72792795300484" lon="16.839523930102587">
        <ele>44.39</ele>
        <time>2025-01-27T11:41:03.746Z</time>
      </trkpt>
      <trkpt lat="58.7279109377414" lon="16.839663991704583">
        <ele>44.55</ele>
        <time>2025-01-27T11:41:05.362Z</time>
      </trkpt>
      <trkpt lat="58.72799299657345" lon="16.83974496088922">
        <ele>44.59</ele>
        <time>2025-01-27T11:41:06.991Z</time>
      </trkpt>
      <trkpt lat="58.72808896936476" lon="16.839968925341964">
        <ele>44.54</ele>
        <time>2025-01-27T11:41:08.640Z</time>
      </trkpt>
      <trkpt lat="58.72813398018479" lon="16.840051990002394">
        <ele>44.41</ele>
        <time>2025-01-27T11:41:10.297Z</time>
      </trkpt>
      <trkpt lat="58.72818997129798" lon="16.840076968073845">
        <ele>44.17</ele>
        <time>2025-01-27T11:41:11.962Z</time>
      </trkpt>
      <trkpt lat="58.728245962411165" lon="16.84004595503211">
        <ele>43.81</ele>
        <time>2025-01-27T11:41:13.635Z</time>
      </trkpt>
      <trkpt lat="58.728290973231196" lon="16.84004696086049">
        <ele>43.33</ele>
        <time>2025-01-27T11:41:15.314Z</time>
      </trkpt>
      <trkpt lat="58.728345958516" lon="16.839968925341964">
        <ele>42.73</ele>
        <time>2025-01-27T11:41:17.002Z</time>
      </trkpt>
      <trkpt lat="58.72838996350765" lon="16.839971942827106">
        <ele>42.02</ele>
        <time>2025-01-27T11:41:18.696Z</time>
      </trkpt>
      <trkpt lat="58.728502951562405" lon="16.840270925313234">
        <ele>41.13</ele>
        <time>2025-01-27T11:41:20.415Z</time>
      </trkpt>
      <trkpt lat="58.72871392406523" lon="16.840530931949615">
        <ele>40.05</ele>
        <time>2025-01-27T11:41:22.168Z</time>
      </trkpt>
      <trkpt lat="58.728693975135684" lon="16.84062195941806">
        <ele>39.06</ele>
        <time>2025-01-27T11:41:23.928Z</time>
      </trkpt>
      <trkpt lat="58.72868299484253" lon="16.84072799049318">
        <ele>37.93</ele>
        <time>2025-01-27T11:41:25.695Z</time>
      </trkpt>
      <trkpt lat="58.72867293655872" lon="16.841057986021042">
        <ele>36.6</ele>
        <time>2025-01-27T11:41:27.485Z</time>
      </trkpt>
      <trkpt lat="58.72866899706423" lon="16.841217996552587">
        <ele>35.29</ele>
        <time>2025-01-27T11:41:29.286Z</time>
      </trkpt>
      <trkpt lat="58.72867193073034" lon="16.841389993205667">
        <ele>33.88</ele>
        <time>2025-01-27T11:41:31.099Z</time>
      </trkpt>
      <trkpt lat="58.728700932115316" lon="16.841533994302154">
        <ele>32.47</ele>
        <time>2025-01-27T11:41:32.923Z</time>
      </trkpt>
      <trkpt lat="58.7289453484118" lon="16.841421090066433">
        <ele>31.05</ele>
        <time>2025-01-27T11:41:34.781Z</time>
      </trkpt>
      <trkpt lat="58.72894995845854" lon="16.84141899459064">
        <ele>29.78</ele>
        <time>2025-01-27T11:41:36.639Z</time>
      </trkpt>
      <trkpt lat="58.7289849948138" lon="16.84178595431149">
        <ele>28.43</ele>
        <time>2025-01-27T11:41:38.523Z</time>
      </trkpt>
      <trkpt lat="58.729038974270225" lon="16.842072950676084">
        <ele>27.16</ele>
        <time>2025-01-27T11:41:40.428Z</time>
      </trkpt>
      <trkpt lat="58.72912094928324" lon="16.842202953994274">
        <ele>26.01</ele>
        <time>2025-01-27T11:41:42.348Z</time>
      </trkpt>
      <trkpt lat="58.72917794622481" lon="16.842371933162212">
        <ele>24.92</ele>
        <time>2025-01-27T11:41:44.282Z</time>
      </trkpt>
      <trkpt lat="58.72920493595302" lon="16.842828998342156">
        <ele>23.89</ele>
        <time>2025-01-27T11:41:46.248Z</time>
      </trkpt>
      <trkpt lat="58.72908893041313" lon="16.843380946666002">
        <ele>22.88</ele>
        <time>2025-01-27T11:41:48.255Z</time>
      </trkpt>
      <trkpt lat="58.72905892319977" lon="16.84363299049437">
        <ele>22.18</ele>
        <time>2025-01-27T11:41:50.280Z</time>
      </trkpt>
      <trkpt lat="58.7289709970355" lon="16.84376492165029">
        <ele>21.67</ele>
        <time>2025-01-27T11:41:52.320Z</time>
      </trkpt>
      <trkpt lat="58.728913916274905" lon="16.843881933018565">
        <ele>21.3</ele>
        <time>2025-01-27T11:41:54.371Z</time>
      </trkpt>
      <trkpt lat="58.72883596457541" lon="16.84393096715212">
        <ele>21.06</ele>
        <time>2025-01-27T11:41:56.433Z</time>
      </trkpt>
      <trkpt lat="58.72877494432032" lon="16.844004979357123">
        <ele>20.95</ele>
        <time>2025-01-27T11:41:58.505Z</time>
      </trkpt>
      <trkpt lat="58.728676959872246" lon="16.844069939106703">
        <ele>21.0</ele>
        <time>2025-01-27T11:42:00.590Z</time>
      </trkpt>
      <trkpt lat="58.728544944897294" lon="16.84397899545729">
        <ele>21.16</ele>
        <time>2025-01-27T11:42:02.694Z</time>
      </trkpt>
      <trkpt lat="58.72841091826558" lon="16.84406792744994">
        <ele>21.47</ele>
        <time>2025-01-27T11:42:04.817Z</time>
      </trkpt>
      <trkpt lat="58.728313939645886" lon="16.844203965738416">
        <ele>21.84</ele>
        <time>2025-01-27T11:42:06.956Z</time>
      </trkpt>
      <trkpt lat="58.728181924670935" lon="16.84411092661321">
        <ele>22.24</ele>
        <time>2025-01-27T11:42:09.114Z</time>
      </trkpt>
      <trkpt lat="58.72807991690934" lon="16.844119979068637">
        <ele>22.71</ele>
        <time>2025-01-27T11:42:11.286Z</time>
      </trkpt>
      <trkpt lat="58.72791973873973" lon="16.844156524166465">
        <ele>23.25</ele>
        <time>2025-01-27T11:42:13.479Z</time>
      </trkpt>
      <trkpt lat="58.72775997966528" lon="16.84419298544526">
        <ele>23.82</ele>
        <time>2025-01-27T11:42:15.694Z</time>
      </trkpt>
      <trkpt lat="58.72771698050201" lon="16.844332963228226">
        <ele>24.44</ele>
        <time>2025-01-27T11:42:17.920Z</time>
      </trkpt>
      <trkpt lat="58.727581948041916" lon="16.844284934923053">
        <ele>25.08</ele>
        <time>2025-01-27T11:42:20.164Z</time>
      </trkpt>
      <trkpt lat="58.72752495110035" lon="16.844335980713367">
        <ele>25.77</ele>
        <time>2025-01-27T11:42:22.417Z</time>
      </trkpt>
      <trkpt lat="58.7274029944092" lon="16.844222992658615">
        <ele>26.47</ele>
        <time>2025-01-27T11:42:24.688Z</time>
      </trkpt>
      <trkpt lat="58.727278942242265" lon="16.844083936885">
        <ele>27.17</ele>
        <time>2025-01-27T11:42:26.978Z</time>
      </trkpt>
      <trkpt lat="58.72719797305763" lon="16.844049990177155">
        <ele>27.89</ele>
        <time>2025-01-27T11:42:29.279Z</time>
      </trkpt>
      <trkpt lat="58.7271339353174" lon="16.844051918014884">
        <ele>28.62</ele>
        <time>2025-01-27T11:42:31.589Z</time>
      </trkpt>
      <trkpt lat="58.72701499611139" lon="16.84410396963358">
        <ele>29.39</ele>
        <time>2025-01-27T11:42:33.915Z</time>
      </trkpt>
      <trkpt lat="58.7269489467144" lon="16.844199942424893">
        <ele>30.14</ele>
        <time>2025-01-27T11:42:36.252Z</time>
      </trkpt>
      <trkpt lat="58.72683595865965" lon="16.84445198625326">
        <ele>30.96</ele>
        <time>2025-01-27T11:42:38.612Z</time>
      </trkpt>
      <trkpt lat="58.72673596255481" lon="16.844888934865594">
        <ele>31.72</ele>
        <time>2025-01-27T11:42:41.005Z</time>
      </trkpt>
      <trkpt lat="58.72668592259288" lon="16.845231922343373">
        <ele>32.4</ele>
        <time>2025-01-27T11:42:43.423Z</time>
      </trkpt>
      <trkpt lat="58.726610988378525" lon="16.845430992543697">
        <ele>33.07</ele>
        <time>2025-01-27T11:42:45.858Z</time>
      </trkpt>
      <trkpt lat="58.726557763293386" lon="16.84576199389994">
        <ele>33.76</ele>
        <time>2025-01-27T11:42:48.317Z</time>
      </trkpt>
      <trkpt lat="58.726504957303405" lon="16.846090983599424">
        <ele>34.46</ele>
        <time>2025-01-27T11:42:50.800Z</time>
      </trkpt>
      <trkpt lat="58.726418958976865" lon="16.84640195220709">
        <ele>35.21</ele>
        <time>2025-01-27T11:42:53.308Z</time>
      </trkpt>
      <trkpt lat="58.72624712996185" lon="16.846561711281538">
        <ele>35.94</ele>
        <time>2025-01-27T11:42:55.841Z</time>
      </trkpt>
      <trkpt lat="58.726075971499085" lon="16.846720967441797">
        <ele>36.7</ele>
        <time>2025-01-27T11:42:58.400Z</time>
      </trkpt>
      <trkpt lat="58.725923923775554" lon="16.847034953534603">
        <ele>37.55</ele>
        <time>2025-01-27T11:43:00.989Z</time>
      </trkpt>
      <trkpt lat="58.72585292905569" lon="16.84741297736764">
        <ele>38.39</ele>
        <time>2025-01-27T11:43:03.605Z</time>
      </trkpt>
      <trkpt lat="58.7257469817996" lon="16.847680946812034">
        <ele>39.27</ele>
        <time>2025-01-27T11:43:06.245Z</time>
      </trkpt>
      <trkpt lat="58.725623935461044" lon="16.848034998402">
        <ele>40.11</ele>
        <time>2025-01-27T11:43:08.914Z</time>
      </trkpt>
      <trkpt lat="58.72552997432649" lon="16.848092917352915">
        <ele>40.94</ele>
        <time>2025-01-27T11:43:11.597Z</time>
      </trkpt>
      <trkpt lat="58.72534096240997" lon="16.848021922633052">
        <ele>41.75</ele>
        <time>2025-01-27T11:43:14.305Z</time>
      </trkpt>
      <trkpt lat="58.72507098130882" lon="16.84818495064974">
        <ele>42.53</ele>
        <time>2025-01-27T11:43:17.051Z</time>
      </trkpt>
      <trkpt lat="58.724924214184284" lon="16.848299195989966">
        <ele>43.46</ele>
        <time>2025-01-27T11:43:19.818Z</time>
      </trkpt>
      <trkpt lat="58.72477794997394" lon="16.848412938416004">
        <ele>44.61</ele>
        <time>2025-01-27T11:43:22.606Z</time>
      </trkpt>
      <trkpt lat="58.72462498024106" lon="16.848504971712828">
        <ele>45.91</ele>
        <time>2025-01-27T11:43:25.416Z</time>
      </trkpt>
      <trkpt lat="58.72450293973088" lon="16.848546965047717">
        <ele>47.25</ele>
        <time>2025-01-27T11:43:28.242Z</time>
      </trkpt>
      <trkpt lat="58.724396992474794" lon="16.8485099170357">
        <ele>48.65</ele>
        <time>2025-01-27T11:43:31.083Z</time>
      </trkpt>
      <trkpt lat="58.72429892420769" lon="16.848525926470757">
        <ele>50.09</ele>
        <time>2025-01-27T11:43:33.937Z</time>
      </trkpt>
      <trkpt lat="58.72417696751654" lon="16.848391983658075">
        <ele>51.52</ele>
        <time>2025-01-27T11:43:36.810Z</time>
      </trkpt>
      <trkpt lat="58.724140925332904" lon="16.84831696562469">
        <ele>52.85</ele>
        <time>2025-01-27T11:43:39.690Z</time>
      </trkpt>
      <trkpt lat="58.72414084151387" lon="16.84831696562469">
        <ele>54.16</ele>
        <time>2025-01-27T11:43:42.570Z</time>
      </trkpt>
      <trkpt lat="58.723970940336585" lon="16.848568925634027">
        <ele>57.05</ele>
        <time>2025-01-27T11:43:45.479Z</time>
      </trkpt>
      <trkpt lat="58.723925929516554" lon="16.848675962537527">
        <ele>58.42</ele>
        <time>2025-01-27T11:43:48.397Z</time>
      </trkpt>
      <trkpt lat="58.72377295978367" lon="16.84876699000597">
        <ele>59.89</ele>
        <time>2025-01-27T11:43:51.337Z</time>
      </trkpt>
      <trkpt lat="58.72367799282074" lon="16.848718961700797">
        <ele>61.18</ele>
        <time>2025-01-27T11:43:54.290Z</time>
      </trkpt>
      <trkpt lat="58.72348898090422" lon="16.848707981407642">
        <ele>62.36</ele>
        <time>2025-01-27T11:43:57.268Z</time>
      </trkpt>
      <trkpt lat="58.72337498702109" lon="16.84863899834454">
        <ele>63.45</ele>
        <time>2025-01-27T11:44:00.262Z</time>
      </trkpt>
      <trkpt lat="58.723218999803066" lon="16.84865995310247">
        <ele>64.45</ele>
        <time>2025-01-27T11:44:03.277Z</time>
      </trkpt>
      <trkpt lat="58.72310198843479" lon="16.848868997767568">
        <ele>65.34</ele>
        <time>2025-01-27T11:44:06.313Z</time>
      </trkpt>
      <trkpt lat="58.72292295098305" lon="16.84906898997724">
        <ele>66.13</ele>
        <time>2025-01-27T11:44:09.377Z</time>
      </trkpt>
      <trkpt lat="58.722937954589725" lon="16.84917996637523">
        <ele>66.94</ele>
        <time>2025-01-27T11:44:12.449Z</time>
      </trkpt>
      <trkpt lat="58.723048930987716" lon="16.849501999095082">
        <ele>67.7</ele>
        <time>2025-01-27T11:44:15.548Z</time>
      </trkpt>
      <trkpt lat="58.723163260146976" lon="16.84973048977554">
        <ele>68.44</ele>
        <time>2025-01-27T11:44:18.669Z</time>
      </trkpt>
      <trkpt lat="58.72327691875398" lon="16.849957974627614">
        <ele>69.18</ele>
        <time>2025-01-27T11:44:21.812Z</time>
      </trkpt>
      <trkpt lat="58.723422260954976" lon="16.850232062861323">
        <ele>69.92</ele>
        <time>2025-01-27T11:44:24.982Z</time>
      </trkpt>
      <trkpt lat="58.72356693260372" lon="16.85050497762859">
        <ele>70.53</ele>
        <time>2025-01-27T11:44:28.179Z</time>
      </trkpt>
      <trkpt lat="58.723730966448784" lon="16.850714944303036">
        <ele>70.94</ele>
        <time>2025-01-27T11:44:31.402Z</time>
      </trkpt>
      <trkpt lat="58.72376197949052" lon="16.85093999840319">
        <ele>71.15</ele>
        <time>2025-01-27T11:44:34.642Z</time>
      </trkpt>
      <trkpt lat="58.723733983933926" lon="16.851148959249258">
        <ele>71.25</ele>
        <time>2025-01-27T11:44:37.897Z</time>
      </trkpt>
      <trkpt lat="58.723602974787354" lon="16.851309975609183">
        <ele>71.22</ele>
        <time>2025-01-27T11:44:41.172Z</time>
      </trkpt>
      <trkpt lat="58.723499961197376" lon="16.85145498253405">
        <ele>71.05</ele>
        <time>2025-01-27T11:44:44.464Z</time>
      </trkpt>
      <trkpt lat="58.72340918518603" lon="16.851785900071263">
        <ele>70.73</ele>
        <time>2025-01-27T11:44:47.782Z</time>
      </trkpt>
      <trkpt lat="58.7233189959079" lon="16.852114973589778">
        <ele>70.34</ele>
        <time>2025-01-27T11:44:51.126Z</time>
      </trkpt>
      <trkpt lat="58.72328597120941" lon="16.852307925000787">
        <ele>69.95</ele>
        <time>2025-01-27T11:44:54.484Z</time>
      </trkpt>
      <trkpt lat="58.723196955397725" lon="16.852538930252194">
        <ele>69.44</ele>
        <time>2025-01-27T11:44:57.862Z</time>
      </trkpt>
      <trkpt lat="58.72320491820574" lon="16.852795919403434">
        <ele>68.88</ele>
        <time>2025-01-27T11:45:01.258Z</time>
      </trkpt>
      <trkpt lat="58.723237942904234" lon="16.85306397266686">
        <ele>68.27</ele>
        <time>2025-01-27T11:45:04.673Z</time>
      </trkpt>
      <trkpt lat="58.72336593456566" lon="16.85334292240441">
        <ele>67.61</ele>
        <time>2025-01-27T11:45:08.114Z</time>
      </trkpt>
      <trkpt lat="58.72354991734028" lon="16.853503938764334">
        <ele>66.89</ele>
        <time>2025-01-27T11:45:11.582Z</time>
      </trkpt>
      <trkpt lat="58.72371998615563" lon="16.853546937927604">
        <ele>66.14</ele>
        <time>2025-01-27T11:45:15.073Z</time>
      </trkpt>
      <trkpt lat="58.72395099140704" lon="16.8536439165473">
        <ele>65.34</ele>
        <time>2025-01-27T11:45:18.596Z</time>
      </trkpt>
      <trkpt lat="58.72409096919" lon="16.85379395261407">
        <ele>64.51</ele>
        <time>2025-01-27T11:45:22.140Z</time>
      </trkpt>
      <trkpt lat="58.72415198944509" lon="16.853975923731923">
        <ele>63.68</ele>
        <time>2025-01-27T11:45:25.699Z</time>
      </trkpt>
      <trkpt lat="58.7241239938885" lon="16.854233918711543">
        <ele>62.87</ele>
        <time>2025-01-27T11:45:29.277Z</time>
      </trkpt>
      <trkpt lat="58.724246956408024" lon="16.854565925896168">
        <ele>62.0</ele>
        <time>2025-01-27T11:45:32.883Z</time>
      </trkpt>
      <trkpt lat="58.72446094639599" lon="16.854925928637385">
        <ele>61.07</ele>
        <time>2025-01-27T11:45:36.527Z</time>
      </trkpt>
      <trkpt lat="58.72461031191051" lon="16.8552809022367">
        <ele>60.18</ele>
        <time>2025-01-27T11:45:40.203Z</time>
      </trkpt>
      <trkpt lat="58.72475892305374" lon="16.855633947998285">
        <ele>59.21</ele>
        <time>2025-01-27T11:45:43.910Z</time>
      </trkpt>
      <trkpt lat="58.7247870862484" lon="16.856029238551855">
        <ele>58.35</ele>
        <time>2025-01-27T11:45:47.645Z</time>
      </trkpt>
      <trkpt lat="58.72481499798596" lon="16.85642193071544">
        <ele>57.54</ele>
        <time>2025-01-27T11:45:51.408Z</time>
      </trkpt>
      <trkpt lat="58.724978948011994" lon="16.85665293596685">
        <ele>56.92</ele>
        <time>2025-01-27T11:45:55.198Z</time>
      </trkpt>
      <trkpt lat="58.72515077702701" lon="16.856800708919764">
        <ele>56.43</ele>
        <time>2025-01-27T11:45:59.013Z</time>
      </trkpt>
      <trkpt lat="58.725321935489774" lon="16.856947978958488">
        <ele>56.06</ele>
        <time>2025-01-27T11:46:02.853Z</time>
      </trkpt>
      <trkpt lat="58.7254277151078" lon="16.857211673632264">
        <ele>55.74</ele>
        <time>2025-01-27T11:46:06.716Z</time>
      </trkpt>
      <trkpt lat="58.72553299181163" lon="16.8574739433825">
        <ele>55.46</ele>
        <time>2025-01-27T11:46:10.602Z</time>
      </trkpt>
      <trkpt lat="58.72552997432649" lon="16.857827994972467">
        <ele>55.18</ele>
        <time>2025-01-27T11:46:14.513Z</time>
      </trkpt>
      <trkpt lat="58.72554992325604" lon="16.858058916404843">
        <ele>54.91</ele>
        <time>2025-01-27T11:46:18.440Z</time>
      </trkpt>
      <trkpt lat="58.72550298459828" lon="16.858165953308344">
        <ele>54.66</ele>
        <time>2025-01-27T11:46:22.377Z</time>
      </trkpt>
      <trkpt lat="58.72546593658626" lon="16.85836996883154">
        <ele>54.38</ele>
        <time>2025-01-27T11:46:26.329Z</time>
      </trkpt>
      <trkpt lat="58.72566140256822" lon="16.858794512227178">
        <ele>54.12</ele>
        <time>2025-01-27T11:46:30.320Z</time>
      </trkpt>
      <trkpt lat="58.72585594654083" lon="16.859216960147023">
        <ele>53.88</ele>
        <time>2025-01-27T11:46:34.350Z</time>
      </trkpt>
      <trkpt lat="58.726092986762524" lon="16.85933497734368">
        <ele>53.94</ele>
        <time>2025-01-27T11:46:38.413Z</time>
      </trkpt>
      <trkpt lat="58.72632399201393" lon="16.859651980921626">
        <ele>54.19</ele>
        <time>2025-01-27T11:46:42.514Z</time>
      </trkpt>
      <trkpt lat="58.726407727226615" lon="16.85991265811026">
        <ele>54.3</ele>
        <time>2025-01-27T11:46:46.636Z</time>
      </trkpt>
      <trkpt lat="58.72649095952511" lon="16.86017199419439">
        <ele>54.36</ele>
        <time>2025-01-27T11:46:50.780Z</time>
      </trkpt>
      <trkpt lat="58.72650193981826" lon="16.860557980835438">
        <ele>54.36</ele>
        <time>2025-01-27T11:46:54.950Z</time>
      </trkpt>
      <trkpt lat="58.726485930383205" lon="16.860890993848443">
        <ele>54.21</ele>
        <time>2025-01-27T11:46:59.144Z</time>
      </trkpt>
      <trkpt lat="58.72633798979223" lon="16.861153934150934">
        <ele>53.95</ele>
        <time>2025-01-27T11:47:03.365Z</time>
      </trkpt>
      <trkpt lat="58.72623799368739" lon="16.861544949933887">
        <ele>53.69</ele>
        <time>2025-01-27T11:47:07.616Z</time>
      </trkpt>
      <trkpt lat="58.72623799368739" lon="16.861625919118524">
        <ele>53.54</ele>
        <time>2025-01-27T11:47:11.873Z</time>
      </trkpt>
      <trkpt lat="58.726290967315435" lon="16.862204940989614">
        <ele>53.4</ele>
        <time>2025-01-27T11:47:16.170Z</time>
      </trkpt>
      <trkpt lat="58.726274371147156" lon="16.86257617548108">
        <ele>53.2</ele>
        <time>2025-01-27T11:47:20.493Z</time>
      </trkpt>
      <trkpt lat="58.72625794261694" lon="16.86294497922063">
        <ele>53.01</ele>
        <time>2025-01-27T11:47:24.842Z</time>
      </trkpt>
      <trkpt lat="58.726264983415604" lon="16.863278076052666">
        <ele>52.83</ele>
        <time>2025-01-27T11:47:29.214Z</time>
      </trkpt>
      <trkpt lat="58.726271940395236" lon="16.863608993589878">
        <ele>52.67</ele>
        <time>2025-01-27T11:47:33.609Z</time>
      </trkpt>
      <trkpt lat="58.726116959005594" lon="16.863967990502715">
        <ele>52.45</ele>
        <time>2025-01-27T11:47:38.037Z</time>
      </trkpt>
      <trkpt lat="58.72594311833382" lon="16.864167815074325">
        <ele>52.28</ele>
        <time>2025-01-27T11:47:42.492Z</time>
      </trkpt>
      <trkpt lat="58.72576994821429" lon="16.86436696909368">
        <ele>52.16</ele>
        <time>2025-01-27T11:47:46.974Z</time>
      </trkpt>
      <trkpt lat="58.72565595433116" lon="16.864522956311703">
        <ele>52.21</ele>
        <time>2025-01-27T11:47:51.474Z</time>
      </trkpt>
      <trkpt lat="58.725624941289425" lon="16.864699982106686">
        <ele>52.4</ele>
        <time>2025-01-27T11:47:55.987Z</time>
      </trkpt>
      <trkpt lat="58.72549267485738" lon="16.864898884668946">
        <ele>52.67</ele>
        <time>2025-01-27T11:48:00.523Z</time>
      </trkpt>
      <trkpt lat="58.72536099515855" lon="16.86509694904089">
        <ele>53.07</ele>
        <time>2025-01-27T11:48:05.081Z</time>
      </trkpt>
      <trkpt lat="58.72532998211682" lon="16.865477990359068">
        <ele>53.59</ele>
        <time>2025-01-27T11:48:09.666Z</time>
      </trkpt>
      <trkpt lat="58.725304920226336" lon="16.86556893400848">
        <ele>53.99</ele>
        <time>2025-01-27T11:48:14.258Z</time>
      </trkpt>
      <trkpt lat="58.72530793771148" lon="16.8660029489547">
        <ele>54.53</ele>
        <time>2025-01-27T11:48:18.880Z</time>
      </trkpt>
      <trkpt lat="58.72527692466974" lon="16.866222973912954">
        <ele>54.92</ele>
        <time>2025-01-27T11:48:23.518Z</time>
      </trkpt>
      <trkpt lat="58.72518799267709" lon="16.866372926160693">
        <ele>55.23</ele>
        <time>2025-01-27T11:48:28.172Z</time>
      </trkpt>
      <trkpt lat="58.72518195770681" lon="16.866587921977043">
        <ele>55.5</ele>
        <time>2025-01-27T11:48:32.841Z</time>
      </trkpt>
      <trkpt lat="58.72508422471583" lon="16.866873241961002">
        <ele>55.66</ele>
        <time>2025-01-27T11:48:37.534Z</time>
      </trkpt>
      <trkpt lat="58.72498699463904" lon="16.86715696938336">
        <ele>55.79</ele>
        <time>2025-01-27T11:48:42.250Z</time>
      </trkpt>
      <trkpt lat="58.725023958832026" lon="16.867317985743284">
        <ele>55.81</ele>
        <time>2025-01-27T11:48:46.979Z</time>
      </trkpt>
      <trkpt lat="58.72490895912051" lon="16.86750498600304">
        <ele>55.74</ele>
        <time>2025-01-27T11:48:51.728Z</time>
      </trkpt>
      <trkpt lat="58.724894961342216" lon="16.86767698265612">
        <ele>55.61</ele>
        <time>2025-01-27T11:48:56.489Z</time>
      </trkpt>
      <trkpt lat="58.72496067546308" lon="16.868069674819708">
        <ele>55.41</ele>
        <time>2025-01-27T11:49:01.278Z</time>
      </trkpt>
      <trkpt lat="58.72502597048879" lon="16.868459936231375">
        <ele>55.14</ele>
        <time>2025-01-27T11:49:06.096Z</time>
      </trkpt>
      <trkpt lat="58.725000992417336" lon="16.868524979799986">
        <ele>54.83</ele>
        <time>2025-01-27T11:49:10.920Z</time>
      </trkpt>
      <trkpt lat="58.72505094856024" lon="16.869081957265735">
        <ele>54.41</ele>
        <time>2025-01-27T11:49:15.783Z</time>
      </trkpt>
      <trkpt lat="58.72512521222234" lon="16.869418490678072">
        <ele>53.92</ele>
        <time>2025-01-27T11:49:20.671Z</time>
      </trkpt>
      <trkpt lat="58.72519897297025" lon="16.869752928614616">
        <ele>53.43</ele>
        <time>2025-01-27T11:49:25.585Z</time>
      </trkpt>
      <trkpt lat="58.72530123218894" lon="16.87016012147069">
        <ele>52.96</ele>
        <time>2025-01-27T11:49:30.530Z</time>
      </trkpt>
      <trkpt lat="58.725403575226665" lon="16.870567314326763">
        <ele>52.6</ele>
        <time>2025-01-27T11:49:35.506Z</time>
      </trkpt>
      <trkpt lat="58.72550499625504" lon="16.870970986783504">
        <ele>52.25</ele>
        <time>2025-01-27T11:49:40.514Z</time>
      </trkpt>
      <trkpt lat="58.7256779987365" lon="16.87141095288098">
        <ele>52.06</ele>
        <time>2025-01-27T11:49:45.560Z</time>
      </trkpt>
      <trkpt lat="58.72580599039793" lon="16.871485970914364">
        <ele>51.94</ele>
        <time>2025-01-27T11:49:50.624Z</time>
      </trkpt>
      <trkpt lat="58.72589492239058" lon="16.871640952304006">
        <ele>51.92</ele>
        <time>2025-01-27T11:49:55.704Z</time>
      </trkpt>
      <trkpt lat="58.72602593153715" lon="16.871721921488643">
        <ele>51.9</ele>
        <time>2025-01-27T11:50:00.802Z</time>
      </trkpt>
      <trkpt lat="58.726136991754174" lon="16.871935995295644">
        <ele>51.98</ele>
        <time>2025-01-27T11:50:05.921Z</time>
      </trkpt>
      <trkpt lat="58.726181918755174" lon="16.87214495614171">
        <ele>52.08</ele>
        <time>2025-01-27T11:50:11.056Z</time>
      </trkpt>
      <trkpt lat="58.72615694068372" lon="16.87235995195806">
        <ele>52.23</ele>
        <time>2025-01-27T11:50:16.206Z</time>
      </trkpt>
      <trkpt lat="58.72620463371277" lon="16.872693551704288">
        <ele>52.46</ele>
        <time>2025-01-27T11:50:21.380Z</time>
      </trkpt>
      <trkpt lat="58.72625199146569" lon="16.87302497215569">
        <ele>52.62</ele>
        <time>2025-01-27T11:50:26.578Z</time>
      </trkpt>
      <trkpt lat="58.72620027512312" lon="16.87332638539374">
        <ele>52.77</ele>
        <time>2025-01-27T11:50:31.798Z</time>
      </trkpt>
      <trkpt lat="58.72614897787571" lon="16.87362595461309">
        <ele>52.86</ele>
        <time>2025-01-27T11:50:37.040Z</time>
      </trkpt>
      <trkpt lat="58.72606792487204" lon="16.87405494041741">
        <ele>53.02</ele>
        <time>2025-01-27T11:50:42.314Z</time>
      </trkpt>
      <trkpt lat="58.726223995909095" lon="16.87431394122541">
        <ele>52.95</ele>
        <time>2025-01-27T11:50:47.616Z</time>
      </trkpt>
      <trkpt lat="58.72625693678856" lon="16.874691965058446">
        <ele>52.92</ele>
        <time>2025-01-27T11:50:52.944Z</time>
      </trkpt>
      <trkpt lat="58.726333966478705" lon="16.87497996725142">
        <ele>52.8</ele>
        <time>2025-01-27T11:50:58.295Z</time>
      </trkpt>
      <trkpt lat="58.72638610191643" lon="16.875385232269764">
        <ele>52.62</ele>
        <time>2025-01-27T11:51:03.675Z</time>
      </trkpt>
      <trkpt lat="58.726437985897064" lon="16.875787982717156">
        <ele>52.41</ele>
        <time>2025-01-27T11:51:09.084Z</time>
      </trkpt>
      <trkpt lat="58.72635123319924" lon="16.876183692365885">
        <ele>52.27</ele>
        <time>2025-01-27T11:51:14.522Z</time>
      </trkpt>
      <trkpt lat="58.726264983415604" lon="16.876576971262693">
        <ele>52.25</ele>
        <time>2025-01-27T11:51:19.990Z</time>
      </trkpt>
      <trkpt lat="58.72627546079457" lon="16.876956671476364">
        <ele>52.13</ele>
        <time>2025-01-27T11:51:25.485Z</time>
      </trkpt>
      <trkpt lat="58.72628593817353" lon="16.877333940938115">
        <ele>52.15</ele>
        <time>2025-01-27T11:51:31.006Z</time>
      </trkpt>
      <trkpt lat="58.72630354017019" lon="16.877710204571486">
        <ele>52.3</ele>
        <time>2025-01-27T11:51:36.553Z</time>
      </trkpt>
      <trkpt lat="58.72632097452879" lon="16.878083953633904">
        <ele>52.43</ele>
        <time>2025-01-27T11:51:42.126Z</time>
      </trkpt>
      <trkpt lat="58.726203963160515" lon="16.8786109238863">
        <ele>52.63</ele>
        <time>2025-01-27T11:51:47.739Z</time>
      </trkpt>
      <trkpt lat="58.72616792097688" lon="16.878925999626517">
        <ele>52.79</ele>
        <time>2025-01-27T11:51:53.374Z</time>
      </trkpt>
      <trkpt lat="58.726099943742156" lon="16.87929497100413">
        <ele>52.95</ele>
        <time>2025-01-27T11:51:59.037Z</time>
      </trkpt>
      <trkpt lat="58.72615392319858" lon="16.87970593571663">
        <ele>53.16</ele>
        <time>2025-01-27T11:52:04.729Z</time>
      </trkpt>
      <trkpt lat="58.726225923746824" lon="16.88013198785484">
        <ele>53.44</ele>
        <time>2025-01-27T11:52:10.452Z</time>
      </trkpt>
      <trkpt lat="58.72612114995718" lon="16.88044731505215">
        <ele>53.73</ele>
        <time>2025-01-27T11:52:16.201Z</time>
      </trkpt>
      <trkpt lat="58.72601696290076" lon="16.88076096586883">
        <ele>53.94</ele>
        <time>2025-01-27T11:52:21.976Z</time>
      </trkpt>
      <trkpt lat="58.72601696290076" lon="16.880761049687862">
        <ele>54.13</ele>
        <time>2025-01-27T11:52:27.751Z</time>
      </trkpt>
      <trkpt lat="58.72606264427304" lon="16.8812099006027">
        <ele>54.44</ele>
        <time>2025-01-27T11:52:33.558Z</time>
      </trkpt>
      <trkpt lat="58.7261079903692" lon="16.881655985489488">
        <ele>54.55</ele>
        <time>2025-01-27T11:52:39.397Z</time>
      </trkpt>
      <trkpt lat="58.72609533369541" lon="16.882225451990962">
        <ele>54.69</ele>
        <time>2025-01-27T11:52:45.275Z</time>
      </trkpt>
      <trkpt lat="58.72608267702162" lon="16.882794918492436">
        <ele>54.73</ele>
        <time>2025-01-27T11:52:51.193Z</time>
      </trkpt>
      <trkpt lat="58.726070020347834" lon="16.88336438499391">
        <ele>54.69</ele>
        <time>2025-01-27T11:52:57.150Z</time>
      </trkpt>
      <trkpt lat="58.726057447493076" lon="16.883933851495385">
        <ele>54.55</ele>
        <time>2025-01-27T11:53:03.147Z</time>
      </trkpt>
      <trkpt lat="58.72604495845735" lon="16.884493930265307">
        <ele>54.35</ele>
        <time>2025-01-27T11:53:09.183Z</time>
      </trkpt>
      <trkpt lat="58.72612165287137" lon="16.884779250249267">
        <ele>54.14</ele>
        <time>2025-01-27T11:53:15.241Z</time>
      </trkpt>
      <trkpt lat="58.72619792819023" lon="16.885062977671623">
        <ele>53.81</ele>
        <time>2025-01-27T11:53:21.322Z</time>
      </trkpt>
      <trkpt lat="58.726126765832305" lon="16.88556907698512">
        <ele>53.48</ele>
        <time>2025-01-27T11:53:27.439Z</time>
      </trkpt>
      <trkpt lat="58.726055938750505" lon="16.886071991175413">
        <ele>53.11</ele>
        <time>2025-01-27T11:53:33.592Z</time>
      </trkpt>
      <trkpt lat="58.72590213082731" lon="16.886276844888926">
        <ele>52.62</ele>
        <time>2025-01-27T11:53:39.770Z</time>
      </trkpt>
      <trkpt lat="58.725748993456364" lon="16.886480944231153">
        <ele>52.16</ele>
        <time>2025-01-27T11:53:45.973Z</time>
      </trkpt>
      <trkpt lat="58.72571798041463" lon="16.88683792948723">
        <ele>51.67</ele>
        <time>2025-01-27T11:53:52.201Z</time>
      </trkpt>
      <trkpt lat="58.72571798041463" lon="16.88730798661709">
        <ele>51.09</ele>
        <time>2025-01-27T11:53:58.462Z</time>
      </trkpt>
      <trkpt lat="58.72579752467573" lon="16.887696152552962">
        <ele>50.5</ele>
        <time>2025-01-27T11:54:04.752Z</time>
      </trkpt>
      <trkpt lat="58.725877068936825" lon="16.888084318488836">
        <ele>49.86</ele>
        <time>2025-01-27T11:54:11.071Z</time>
      </trkpt>
      <trkpt lat="58.72595594264567" lon="16.88846896402538">
        <ele>49.14</ele>
        <time>2025-01-27T11:54:17.419Z</time>
      </trkpt>
      <trkpt lat="58.726033978164196" lon="16.888551944866776">
        <ele>48.56</ele>
        <time>2025-01-27T11:54:23.779Z</time>
      </trkpt>
      <trkpt lat="58.72610094957054" lon="16.888744980096817">
        <ele>47.93</ele>
        <time>2025-01-27T11:54:30.155Z</time>
      </trkpt>
      <trkpt lat="58.72613397426903" lon="16.888782950118184">
        <ele>47.35</ele>
        <time>2025-01-27T11:54:36.536Z</time>
      </trkpt>
      <trkpt lat="58.72629792429507" lon="16.889086961746216">
        <ele>46.68</ele>
        <time>2025-01-27T11:54:42.947Z</time>
      </trkpt>
      <trkpt lat="58.726354921236634" lon="16.889103977009654">
        <ele>46.18</ele>
        <time>2025-01-27T11:54:49.366Z</time>
      </trkpt>
      <trkpt lat="58.72658299282193" lon="16.88909492455423">
        <ele>45.77</ele>
        <time>2025-01-27T11:54:55.816Z</time>
      </trkpt>
      <trkpt lat="58.726676953956485" lon="16.889034993946552">
        <ele>45.33</ele>
        <time>2025-01-27T11:55:02.279Z</time>
      </trkpt>
      <trkpt lat="58.726912988349795" lon="16.888807928189635">
        <ele>44.96</ele>
        <time>2025-01-27T11:55:08.777Z</time>
      </trkpt>
      <trkpt lat="58.72706796973944" lon="16.888726959004998">
        <ele>44.53</ele>
        <time>2025-01-27T11:55:15.297Z</time>
      </trkpt>
      <trkpt lat="58.727131923660636" lon="16.888758977875113">
        <ele>44.18</ele>
        <time>2025-01-27T11:55:21.825Z</time>
      </trkpt>
      <trkpt lat="58.727278942242265" lon="16.88904899172485">
        <ele>43.82</ele>
        <time>2025-01-27T11:55:28.381Z</time>
      </trkpt>
      <trkpt lat="58.727319929748774" lon="16.889249989762902">
        <ele>43.6</ele>
        <time>2025-01-27T11:55:34.952Z</time>
      </trkpt>
      <trkpt lat="58.72727885842323" lon="16.889546373859048">
        <ele>43.48</ele>
        <time>2025-01-27T11:55:41.545Z</time>
      </trkpt>
      <trkpt lat="58.727237954735756" lon="16.889840997755527">
        <ele>43.51</ele>
        <time>2025-01-27T11:55:48.159Z</time>
      </trkpt>
      <trkpt lat="58.72720099054277" lon="16.889941999688745">
        <ele>43.63</ele>
        <time>2025-01-27T11:55:54.782Z</time>
      </trkpt>
      <trkpt lat="58.726959927007556" lon="16.890091951936483">
        <ele>43.91</ele>
        <time>2025-01-27T11:56:01.438Z</time>
      </trkpt>
      <trkpt lat="58.72696998529136" lon="16.890304936096072">
        <ele>44.31</ele>
        <time>2025-01-27T11:56:08.109Z</time>
      </trkpt>
      <trkpt lat="58.72689471580088" lon="16.89073626883328">
        <ele>44.84</ele>
        <time>2025-01-27T11:56:14.812Z</time>
      </trkpt>
      <trkpt lat="58.72681994922459" lon="16.891164919361472">
        <ele>45.56</ele>
        <time>2025-01-27T11:56:21.546Z</time>
      </trkpt>
      <trkpt lat="58.7268989905715" lon="16.89163296483457">
        <ele>46.23</ele>
        <time>2025-01-27T11:56:28.315Z</time>
      </trkpt>
      <trkpt lat="58.72693209908903" lon="16.892018700018525">
        <ele>46.94</ele>
        <time>2025-01-27T11:56:35.111Z</time>
      </trkpt>
      <trkpt lat="58.72696495614946" lon="16.892401920631528">
        <ele>47.71</ele>
        <time>2025-01-27T11:56:41.934Z</time>
      </trkpt>
      <trkpt lat="58.72699194587767" lon="16.892519937828183">
        <ele>48.54</ele>
        <time>2025-01-27T11:56:48.766Z</time>
      </trkpt>
      <trkpt lat="58.72705196030438" lon="16.892913971096277">
        <ele>49.37</ele>
        <time>2025-01-27T11:56:55.626Z</time>
      </trkpt>
      <trkpt lat="58.72695967555046" lon="16.893401462584734">
        <ele>50.38</ele>
        <time>2025-01-27T11:57:02.522Z</time>
      </trkpt>
      <trkpt lat="58.726867977529764" lon="16.89388593658805">
        <ele>51.41</ele>
        <time>2025-01-27T11:57:09.454Z</time>
      </trkpt>
      <trkpt lat="58.72684953734279" lon="16.894331770017743">
        <ele>52.41</ele>
        <time>2025-01-27T11:57:16.417Z</time>
      </trkpt>
      <trkpt lat="58.72683118097484" lon="16.894777519628406">
        <ele>53.35</ele>
        <time>2025-01-27T11:57:23.411Z</time>
      </trkpt>
      <trkpt lat="58.72681299224496" lon="16.89521899446845">
        <ele>54.3</ele>
        <time>2025-01-27T11:57:30.436Z</time>
      </trkpt>
      <trkpt lat="58.72691893950105" lon="16.895639933645725">
        <ele>55.1</ele>
        <time>2025-01-27T11:57:37.494Z</time>
      </trkpt>
      <trkpt lat="58.7271339353174" lon="16.895963978022337">
        <ele>55.9</ele>
        <time>2025-01-27T11:57:44.588Z</time>
      </trkpt>
      <trkpt lat="58.72728497721255" lon="16.89623194746673">
        <ele>56.8</ele>
        <time>2025-01-27T11:57:51.710Z</time>
      </trkpt>
      <trkpt lat="58.72733493335545" lon="16.896386928856373">
        <ele>57.51</ele>
        <time>2025-01-27T11:57:58.844Z</time>
      </trkpt>
      <trkpt lat="58.72741598635912" lon="16.896585999056697">
        <ele>58.18</ele>
        <time>2025-01-27T11:58:05.996Z</time>
      </trkpt>
      <trkpt lat="58.72743492946029" lon="16.89682697877288">
        <ele>58.81</ele>
        <time>2025-01-27T11:58:13.165Z</time>
      </trkpt>
      <trkpt lat="58.72749092057347" lon="16.897320924326777">
        <ele>59.42</ele>
        <time>2025-01-27T11:58:20.369Z</time>
      </trkpt>
      <trkpt lat="58.72750793583691" lon="16.89764798618853">
        <ele>59.84</ele>
        <time>2025-01-27T11:58:27.596Z</time>
      </trkpt>
      <trkpt lat="58.72760424390435" lon="16.898150984197855">
        <ele>60.12</ele>
        <time>2025-01-27T11:58:34.860Z</time>
      </trkpt>
      <trkpt lat="58.72769996523857" lon="16.898650964722037">
        <ele>60.36</ele>
        <time>2025-01-27T11:58:42.161Z</time>
      </trkpt>
      <trkpt lat="58.72773894108832" lon="16.898693963885307">
        <ele>60.46</ele>
        <time>2025-01-27T11:58:49.468Z</time>
      </trkpt>
      <trkpt lat="58.72783223167062" lon="16.89894961193204">
        <ele>60.49</ele>
        <time>2025-01-27T11:58:56.797Z</time>
      </trkpt>
      <trkpt lat="58.727924935519695" lon="16.899203918874264">
        <ele>60.39</ele>
        <time>2025-01-27T11:59:04.147Z</time>
      </trkpt>
      <trkpt lat="58.728050999343395" lon="16.89936493523419">
        <ele>60.14</ele>
        <time>2025-01-27T11:59:11.518Z</time>
      </trkpt>
      <trkpt lat="58.728245962411165" lon="16.899444982409477">
        <ele>59.7</ele>
        <time>2025-01-27T11:59:18.915Z</time>
      </trkpt>
      <trkpt lat="58.7284289393574" lon="16.89958395436406">
        <ele>59.18</ele>
        <time>2025-01-27T11:59:26.339Z</time>
      </trkpt>
      <trkpt lat="58.728632954880595" lon="16.899873968213797">
        <ele>58.71</ele>
        <time>2025-01-27T11:59:33.797Z</time>
      </trkpt>
      <trkpt lat="58.728829929605126" lon="16.900195917114615">
        <ele>58.1</ele>
        <time>2025-01-27T11:59:41.289Z</time>
      </trkpt>
      <trkpt lat="58.728891955688596" lon="16.900495989248157">
        <ele>57.5</ele>
        <time>2025-01-27T11:59:48.804Z</time>
      </trkpt>
      <trkpt lat="58.72898097150028" lon="16.90080695785582">
        <ele>56.71</ele>
        <time>2025-01-27T11:59:56.343Z</time>
      </trkpt>
      <trkpt lat="58.729083985090256" lon="16.901059923693538">
        <ele>55.75</ele>
        <time>2025-01-27T12:00:03.905Z</time>
      </trkpt>
      <trkpt lat="58.72915891930461" lon="16.90149393863976">
        <ele>54.8</ele>
        <time>2025-01-27T12:00:11.498Z</time>
      </trkpt>
      <trkpt lat="58.729169983416796" lon="16.901670964434743">
        <ele>53.92</ele>
        <time>2025-01-27T12:00:19.104Z</time>
      </trkpt>
      <trkpt lat="58.72926696203649" lon="16.90205192193389">
        <ele>52.8</ele>
        <time>2025-01-27T12:00:26.739Z</time>
      </trkpt>
      <trkpt lat="58.72928095981479" lon="16.90213792026043">
        <ele>51.9</ele>
        <time>2025-01-27T12:00:34.380Z</time>
      </trkpt>
      <trkpt lat="58.72932597063482" lon="16.902191983535886">
        <ele>50.95</ele>
        <time>2025-01-27T12:00:42.029Z</time>
      </trkpt>
      <trkpt lat="58.72943694703281" lon="16.902534971013665">
        <ele>50.01</ele>
        <time>2025-01-27T12:00:49.706Z</time>
      </trkpt>
      <trkpt lat="58.729573991149664" lon="16.902850968763232">
        <ele>49.13</ele>
        <time>2025-01-27T12:00:57.411Z</time>
      </trkpt>
      <trkpt lat="58.72962696477771" lon="16.902899919077754">
        <ele>48.31</ele>
        <time>2025-01-27T12:01:05.124Z</time>
      </trkpt>
      <trkpt lat="58.7297051679343" lon="16.903222370892763">
        <ele>47.69</ele>
        <time>2025-01-27T12:01:12.862Z</time>
      </trkpt>
      <trkpt lat="58.72978295199573" lon="16.903542978689075">
        <ele>47.09</ele>
        <time>2025-01-27T12:01:20.624Z</time>
      </trkpt>
      <trkpt lat="58.72982997447252" lon="16.90361891873181">
        <ele>46.48</ele>
        <time>2025-01-27T12:01:28.395Z</time>
      </trkpt>
      <trkpt lat="58.72984698973596" lon="16.903955955058336">
        <ele>46.04</ele>
        <time>2025-01-27T12:01:36.189Z</time>
      </trkpt>
      <trkpt lat="58.72993893921375" lon="16.90446096472442">
        <ele>45.52</ele>
        <time>2025-01-27T12:01:44.020Z</time>
      </trkpt>
      <trkpt lat="58.72993893921375" lon="16.90454696305096">
        <ele>45.08</ele>
        <time>2025-01-27T12:01:51.857Z</time>
      </trkpt>
      <trkpt lat="58.7299969419837" lon="16.90469096414745">
        <ele>44.68</ele>
        <time>2025-01-27T12:01:59.707Z</time>
      </trkpt>
      <trkpt lat="58.73006399720907" lon="16.905002938583493">
        <ele>44.29</ele>
        <time>2025-01-27T12:02:07.580Z</time>
      </trkpt>
      <trkpt lat="58.73008092865348" lon="16.905538961291313">
        <ele>44.02</ele>
        <time>2025-01-27T12:02:15.491Z</time>
      </trkpt>
      <trkpt lat="58.73006097972393" lon="16.905602999031544">
        <ele>43.87</ele>
        <time>2025-01-27T12:02:23.407Z</time>
      </trkpt>
      <trkpt lat="58.73002192005515" lon="16.905806930735707">
        <ele>43.74</ele>
        <time>2025-01-27T12:02:31.338Z</time>
      </trkpt>
      <trkpt lat="58.72997799888253" lon="16.905951937660575">
        <ele>43.71</ele>
        <time>2025-01-27T12:02:39.281Z</time>
      </trkpt>
      <trkpt lat="58.72995939105749" lon="16.90629660151899">
        <ele>43.75</ele>
        <time>2025-01-27T12:02:47.248Z</time>
      </trkpt>
      <trkpt lat="58.729940950870514" lon="16.906638918444514">
        <ele>43.84</ele>
        <time>2025-01-27T12:02:55.239Z</time>
      </trkpt>
      <trkpt lat="58.730010939761996" lon="16.907131941989064">
        <ele>43.96</ele>
        <time>2025-01-27T12:03:03.265Z</time>
      </trkpt>
      <trkpt lat="58.730004988610744" lon="16.907426984980702">
        <ele>44.14</ele>
        <time>2025-01-27T12:03:11.312Z</time>
      </trkpt>
      <trkpt lat="58.72993893921375" lon="16.907646926119924">
        <ele>44.38</ele>
        <time>2025-01-27T12:03:19.376Z</time>
      </trkpt>
      <trkpt lat="58.729901975020766" lon="16.907861921936274">
        <ele>44.68</ele>
        <time>2025-01-27T12:03:27.456Z</time>
      </trkpt>
      <trkpt lat="58.72986098751426" lon="16.90795797854662">
        <ele>45.06</ele>
        <time>2025-01-27T12:03:35.545Z</time>
      </trkpt>
      <trkpt lat="58.72984095476568" lon="16.908167945221066">
        <ele>45.46</ele>
        <time>2025-01-27T12:03:43.649Z</time>
      </trkpt>
      <trkpt lat="58.72980793006718" lon="16.90827992744744">
        <ele>45.89</ele>
        <time>2025-01-27T12:03:51.762Z</time>
      </trkpt>
      <trkpt lat="58.729662923142314" lon="16.908526942133904">
        <ele>46.37</ele>
        <time>2025-01-27T12:03:59.901Z</time>
      </trkpt>
      <trkpt lat="58.729620929807425" lon="16.908660968765616">
        <ele>46.83</ele>
        <time>2025-01-27T12:04:08.050Z</time>
      </trkpt>
      <trkpt lat="58.72948497533798" lon="16.908810921013355">
        <ele>47.34</ele>
        <time>2025-01-27T12:04:16.220Z</time>
      </trkpt>
      <trkpt lat="58.729361928999424" lon="16.90901493653655">
        <ele>47.78</ele>
        <time>2025-01-27T12:04:24.412Z</time>
      </trkpt>
      <trkpt lat="58.72926696203649" lon="16.909368988126516">
        <ele>48.22</ele>
        <time>2025-01-27T12:04:32.632Z</time>
      </trkpt>
      <trkpt lat="58.72920895926654" lon="16.909534949809313">
        <ele>48.57</ele>
        <time>2025-01-27T12:04:40.866Z</time>
      </trkpt>
      <trkpt lat="58.72915891930461" lon="16.909749945625663">
        <ele>48.81</ele>
        <time>2025-01-27T12:04:49.116Z</time>
      </trkpt>
      <trkpt lat="58.72923091985285" lon="16.9101469963789">
        <ele>49.05</ele>
        <time>2025-01-27T12:04:57.395Z</time>
      </trkpt>
      <trkpt lat="58.72921499423683" lon="16.910377917811275">
        <ele>49.15</ele>
        <time>2025-01-27T12:05:05.690Z</time>
      </trkpt>
      <trkpt lat="58.72918096370995" lon="16.91043097525835">
        <ele>49.16</ele>
        <time>2025-01-27T12:05:13.991Z</time>
      </trkpt>
      <trkpt lat="58.72911994345486" lon="16.910811932757497">
        <ele>49.14</ele>
        <time>2025-01-27T12:05:22.320Z</time>
      </trkpt>
      <trkpt lat="58.72910292819142" lon="16.911058947443962">
        <ele>49.01</ele>
        <time>2025-01-27T12:05:30.666Z</time>
      </trkpt>
      <trkpt lat="58.729109382256866" lon="16.911068418994546">
        <ele>48.81</ele>
        <time>2025-01-27T12:05:39.013Z</time>
      </trkpt>
      <trkpt lat="58.729309709742665" lon="16.91136027686298">
        <ele>48.6</ele>
        <time>2025-01-27T12:05:47.394Z</time>
      </trkpt>
      <trkpt lat="58.72951649129391" lon="16.911661606281996">
        <ele>48.32</ele>
        <time>2025-01-27T12:05:55.810Z</time>
      </trkpt>
      <trkpt lat="58.72972193174064" lon="16.91196092404425">
        <ele>48.01</ele>
        <time>2025-01-27T12:06:04.260Z</time>
      </trkpt>
      <trkpt lat="58.72996374964714" lon="16.912172315642238">
        <ele>47.53</ele>
        <time>2025-01-27T12:06:12.746Z</time>
      </trkpt>
      <trkpt lat="58.73020548373461" lon="16.912383707240224">
        <ele>47.06</ele>
        <time>2025-01-27T12:06:21.267Z</time>
      </trkpt>
      <trkpt lat="58.7304459605366" lon="16.912593925371766">
        <ele>46.72</ele>
        <time>2025-01-27T12:06:29.823Z</time>
      </trkpt>
      <trkpt lat="58.730647880584" lon="16.91289810463786">
        <ele>46.45</ele>
        <time>2025-01-27T12:06:38.414Z</time>
      </trkpt>
      <trkpt lat="58.73084896244109" lon="16.91320094279945">
        <ele>46.27</ele>
        <time>2025-01-27T12:06:47.039Z</time>
      </trkpt>
      <trkpt lat="58.73107988387346" lon="16.913368245586753">
        <ele>46.15</ele>
        <time>2025-01-27T12:06:55.697Z</time>
      </trkpt>
      <trkpt lat="58.73131030239165" lon="16.913535045459867">
        <ele>46.15</ele>
        <time>2025-01-27T12:07:04.388Z</time>
      </trkpt>
      <trkpt lat="58.73131021857262" lon="16.913535045459867">
        <ele>46.94</ele>
        <time>2025-01-27T12:07:13.079Z</time>
      </trkpt>
      <trkpt lat="58.73130996711552" lon="16.913534961640835">
        <ele>47.62</ele>
        <time>2025-01-27T12:07:21.770Z</time>
      </trkpt>
      <trkpt lat="58.7314993981272" lon="16.913850205019116">
        <ele>48.45</ele>
        <time>2025-01-27T12:07:30.494Z</time>
      </trkpt>
      <trkpt lat="58.73168799094856" lon="16.914163939654827">
        <ele>49.44</ele>
        <time>2025-01-27T12:07:39.252Z</time>
      </trkpt>
      <trkpt lat="58.73167592100799" lon="16.914474992081523">
        <ele>50.79</ele>
        <time>2025-01-27T12:07:48.031Z</time>
      </trkpt>
      <trkpt lat="58.73167994432151" lon="16.914958292618394">
        <ele>52.46</ele>
        <time>2025-01-27T12:07:56.844Z</time>
      </trkpt>
      <trkpt lat="58.731683967635036" lon="16.915441593155265">
        <ele>54.31</ele>
        <time>2025-01-27T12:08:05.691Z</time>
      </trkpt>
      <trkpt lat="58.73168799094856" lon="16.915924977511168">
        <ele>56.31</ele>
        <time>2025-01-27T12:08:14.571Z</time>
      </trkpt>
      <trkpt lat="58.73169193044305" lon="16.91640199162066">
        <ele>58.25</ele>
        <time>2025-01-27T12:08:23.484Z</time>
      </trkpt>
      <trkpt lat="58.73177424073219" lon="16.916831899434328">
        <ele>60.12</ele>
        <time>2025-01-27T12:08:32.429Z</time>
      </trkpt>
      <trkpt lat="58.731856467202306" lon="16.917261891067028">
        <ele>61.95</ele>
        <time>2025-01-27T12:08:41.406Z</time>
      </trkpt>
      <trkpt lat="58.73193793930113" lon="16.917687943205237">
        <ele>63.69</ele>
        <time>2025-01-27T12:08:50.415Z</time>
      </trkpt>
      <trkpt lat="58.731878930702806" lon="16.917956918478012">
        <ele>65.24</ele>
        <time>2025-01-27T12:08:59.444Z</time>
      </trkpt>
      <trkpt lat="58.73191497288644" lon="16.918470980599523">
        <ele>66.65</ele>
        <time>2025-01-27T12:09:08.509Z</time>
      </trkpt>
      <trkpt lat="58.73192394152284" lon="16.918598972260952">
        <ele>67.83</ele>
        <time>2025-01-27T12:09:17.583Z</time>
      </trkpt>
      <trkpt lat="58.732114965096116" lon="16.918928967788815">
        <ele>68.77</ele>
        <time>2025-01-27T12:09:26.691Z</time>
      </trkpt>
      <trkpt lat="58.732242956757545" lon="16.919318977743387">
        <ele>69.5</ele>
        <time>2025-01-27T12:09:35.831Z</time>
      </trkpt>
      <trkpt lat="58.73237698338926" lon="16.919481921941042">
        <ele>70.06</ele>
        <time>2025-01-27T12:09:44.992Z</time>
      </trkpt>
      <trkpt lat="58.732476979494095" lon="16.919489968568087">
        <ele>70.38</ele>
        <time>2025-01-27T12:09:54.167Z</time>
      </trkpt>
      <trkpt lat="58.73253498226404" lon="16.91996991634369">
        <ele>70.57</ele>
        <time>2025-01-27T12:10:03.376Z</time>
      </trkpt>
      <trkpt lat="58.73255493119359" lon="16.92026998847723">
        <ele>70.49</ele>
        <time>2025-01-27T12:10:12.606Z</time>
      </trkpt>
      <trkpt lat="58.73263699002564" lon="16.920691933482885">
        <ele>70.18</ele>
        <time>2025-01-27T12:10:21.867Z</time>
      </trkpt>
      <trkpt lat="58.73273799195886" lon="16.920861918479204">
        <ele>69.63</ele>
        <time>2025-01-27T12:10:31.146Z</time>
      </trkpt>
      <trkpt lat="58.732775961980224" lon="16.92121395841241">
        <ele>68.82</ele>
        <time>2025-01-27T12:10:40.450Z</time>
      </trkpt>
      <trkpt lat="58.73270597308874" lon="16.921551916748285">
        <ele>67.91</ele>
        <time>2025-01-27T12:10:49.780Z</time>
      </trkpt>
      <trkpt lat="58.7326839286834" lon="16.9217929802835">
        <ele>66.89</ele>
        <time>2025-01-27T12:10:59.127Z</time>
      </trkpt>
      <trkpt lat="58.7326339725405" lon="16.921889958903193">
        <ele>65.85</ele>
        <time>2025-01-27T12:11:08.483Z</time>
      </trkpt>
      <trkpt lat="58.73259499669075" lon="16.92199196666479">
        <ele>64.71</ele>
        <time>2025-01-27T12:11:17.848Z</time>
      </trkpt>
      <trkpt lat="58.73255392536521" lon="16.922277957201004">
        <ele>63.43</ele>
        <time>2025-01-27T12:11:27.233Z</time>
      </trkpt>
      <trkpt lat="58.73255392536521" lon="16.9226529635489">
        <ele>62.03</ele>
        <time>2025-01-27T12:11:36.645Z</time>
      </trkpt>
      <trkpt lat="58.732673954218626" lon="16.923070969060063">
        <ele>60.29</ele>
        <time>2025-01-27T12:11:46.090Z</time>
      </trkpt>
      <trkpt lat="58.73271896503866" lon="16.92345393821597">
        <ele>58.66</ele>
        <time>2025-01-27T12:11:55.562Z</time>
      </trkpt>
      <trkpt lat="58.73261695727706" lon="16.92388493567705">
        <ele>57.33</ele>
        <time>2025-01-27T12:12:05.067Z</time>
      </trkpt>
      <trkpt lat="58.73240204527974" lon="16.924164555966854">
        <ele>56.2</ele>
        <time>2025-01-27T12:12:14.607Z</time>
      </trkpt>
      <trkpt lat="58.73218797147274" lon="16.92444291897118">
        <ele>55.1</ele>
        <time>2025-01-27T12:12:24.181Z</time>
      </trkpt>
      <trkpt lat="58.73197104781866" lon="16.92467593587935">
        <ele>54.02</ele>
        <time>2025-01-27T12:12:33.788Z</time>
      </trkpt>
      <trkpt lat="58.7317549623549" lon="16.924907946959138">
        <ele>52.99</ele>
        <time>2025-01-27T12:12:43.428Z</time>
      </trkpt>
      <trkpt lat="58.73156595043838" lon="16.924989921972156">
        <ele>52.05</ele>
        <time>2025-01-27T12:12:53.094Z</time>
      </trkpt>
      <trkpt lat="58.73134592548013" lon="16.925008948892355">
        <ele>51.19</ele>
        <time>2025-01-27T12:13:02.790Z</time>
      </trkpt>
      <trkpt lat="58.73110092245042" lon="16.924829995259643">
        <ele>50.51</ele>
        <time>2025-01-27T12:13:12.521Z</time>
      </trkpt>
      <trkpt lat="58.73115196824074" lon="16.925164936110377">
        <ele>49.75</ele>
        <time>2025-01-27T12:13:22.276Z</time>
      </trkpt>
      <trkpt lat="58.731144927442074" lon="16.925397953018546">
        <ele>49.17</ele>
        <time>2025-01-27T12:13:32.047Z</time>
      </trkpt>
      <trkpt lat="58.73107477091253" lon="16.925906063988805">
        <ele>48.62</ele>
        <time>2025-01-27T12:13:41.855Z</time>
      </trkpt>
      <trkpt lat="58.73100494965911" lon="16.92641098983586">
        <ele>48.32</ele>
        <time>2025-01-27T12:13:51.699Z</time>
      </trkpt>
      <trkpt lat="58.73107493855059" lon="16.92645792849362">
        <ele>48.12</ele>
        <time>2025-01-27T12:14:01.553Z</time>
      </trkpt>
      <trkpt lat="58.73108457773924" lon="16.926462622359395">
        <ele>48.02</ele>
        <time>2025-01-27T12:14:11.408Z</time>
      </trkpt>
      <trkpt lat="58.73108985833824" lon="16.926465220749378">
        <ele>48.01</ele>
        <time>2025-01-27T12:14:21.264Z</time>
      </trkpt>
      <trkpt lat="58.73130099847913" lon="16.92656798288226">
        <ele>48.25</ele>
        <time>2025-01-27T12:14:31.149Z</time>
      </trkpt>
      <trkpt lat="58.73137794435024" lon="16.926647946238518">
        <ele>48.48</ele>
        <time>2025-01-27T12:14:41.046Z</time>
      </trkpt>
      <trkpt lat="58.73152672313154" lon="16.926843831315637">
        <ele>48.79</ele>
        <time>2025-01-27T12:14:50.967Z</time>
      </trkpt>
      <trkpt lat="58.73167499899864" lon="16.92703896202147">
        <ele>49.12</ele>
        <time>2025-01-27T12:15:00.912Z</time>
      </trkpt>
      <trkpt lat="58.731942968443036" lon="16.927309948951006">
        <ele>49.45</ele>
        <time>2025-01-27T12:15:10.898Z</time>
      </trkpt>
      <trkpt lat="58.73206375166774" lon="16.927651343867183">
        <ele>49.76</ele>
        <time>2025-01-27T12:15:20.912Z</time>
      </trkpt>
      <trkpt lat="58.73218394815922" lon="16.927990978583694">
        <ele>49.96</ele>
        <time>2025-01-27T12:15:30.955Z</time>
      </trkpt>
      <trkpt lat="58.73234529979527" lon="16.92818183451891">
        <ele>50.14</ele>
        <time>2025-01-27T12:15:41.023Z</time>
      </trkpt>
      <trkpt lat="58.73250598087907" lon="16.92837193608284">
        <ele>50.31</ele>
        <time>2025-01-27T12:15:51.116Z</time>
      </trkpt>
      <trkpt lat="58.73260899446905" lon="16.928706960752606">
        <ele>50.48</ele>
        <time>2025-01-27T12:16:01.236Z</time>
      </trkpt>
      <trkpt lat="58.73270899057388" lon="16.929222950711846">
        <ele>50.58</ele>
        <time>2025-01-27T12:16:11.395Z</time>
      </trkpt>
      <trkpt lat="58.7327756267041" lon="16.929611200466752">
        <ele>50.64</ele>
        <time>2025-01-27T12:16:21.582Z</time>
      </trkpt>
      <trkpt lat="58.732841927558184" lon="16.929996935650706">
        <ele>50.6</ele>
        <time>2025-01-27T12:16:31.797Z</time>
      </trkpt>
      <trkpt lat="58.732936726883054" lon="16.93043681792915">
        <ele>50.57</ele>
        <time>2025-01-27T12:16:42.045Z</time>
      </trkpt>
      <trkpt lat="58.7330309394747" lon="16.930873934179544">
        <ele>50.63</ele>
        <time>2025-01-27T12:16:52.326Z</time>
      </trkpt>
      <trkpt lat="58.73311098664999" lon="16.931065963581204">
        <ele>50.73</ele>
        <time>2025-01-27T12:17:02.624Z</time>
      </trkpt>
      <trkpt lat="58.7332899402827" lon="16.931495536118746">
        <ele>50.81</ele>
        <time>2025-01-27T12:17:12.961Z</time>
      </trkpt>
      <trkpt lat="58.733467971906066" lon="16.931922929361463">
        <ele>50.87</ele>
        <time>2025-01-27T12:17:23.336Z</time>
      </trkpt>
      <trkpt lat="58.73351893387735" lon="16.93230296485126">
        <ele>51.0</ele>
        <time>2025-01-27T12:17:33.738Z</time>
      </trkpt>
      <trkpt lat="58.7334868311882" lon="16.93277696147561">
        <ele>51.25</ele>
        <time>2025-01-27T12:17:44.173Z</time>
      </trkpt>
      <trkpt lat="58.73345497995615" lon="16.93324794061482">
        <ele>51.56</ele>
        <time>2025-01-27T12:17:54.641Z</time>
      </trkpt>
      <trkpt lat="58.73343109153211" lon="16.933732079342008">
        <ele>51.93</ele>
        <time>2025-01-27T12:18:05.143Z</time>
      </trkpt>
      <trkpt lat="58.733407286927104" lon="16.934216134250164">
        <ele>52.27</ele>
        <time>2025-01-27T12:18:15.679Z</time>
      </trkpt>
      <trkpt lat="58.7333834823221" lon="16.93470018915832">
        <ele>52.62</ele>
        <time>2025-01-27T12:18:26.249Z</time>
      </trkpt>
      <trkpt lat="58.733359929174185" lon="16.935177957639098">
        <ele>52.86</ele>
        <time>2025-01-27T12:18:36.852Z</time>
      </trkpt>
      <trkpt lat="58.73326915316284" lon="16.93565145134926">
        <ele>52.99</ele>
        <time>2025-01-27T12:18:47.490Z</time>
      </trkpt>
      <trkpt lat="58.73317896388471" lon="16.936121927574277">
        <ele>53.01</ele>
        <time>2025-01-27T12:18:58.163Z</time>
      </trkpt>
      <trkpt lat="58.732993891462684" lon="16.93658821284771">
        <ele>53.14</ele>
        <time>2025-01-27T12:19:08.877Z</time>
      </trkpt>
      <trkpt lat="58.732808819040656" lon="16.93705441430211">
        <ele>53.22</ele>
        <time>2025-01-27T12:19:19.631Z</time>
      </trkpt>
      <trkpt lat="58.73262374661863" lon="16.93752061575651">
        <ele>53.13</ele>
        <time>2025-01-27T12:19:30.426Z</time>
      </trkpt>
      <trkpt lat="58.73243859037757" lon="16.937986901029944">
        <ele>52.95</ele>
        <time>2025-01-27T12:19:41.262Z</time>
      </trkpt>
      <trkpt lat="58.73225594870746" lon="16.93844698369503">
        <ele>52.74</ele>
        <time>2025-01-27T12:19:52.138Z</time>
      </trkpt>
      <trkpt lat="58.732109516859055" lon="16.938906563445926">
        <ele>52.54</ele>
        <time>2025-01-27T12:20:03.052Z</time>
      </trkpt>
      <trkpt lat="58.73196316882968" lon="16.939366227015853">
        <ele>52.17</ele>
        <time>2025-01-27T12:20:14.003Z</time>
      </trkpt>
      <trkpt lat="58.73181799426675" lon="16.93982195109129">
        <ele>51.74</ele>
        <time>2025-01-27T12:20:24.991Z</time>
      </trkpt>
      <trkpt lat="58.7316479254514" lon="16.940200980752707">
        <ele>51.34</ele>
        <time>2025-01-27T12:20:36.014Z</time>
      </trkpt>
      <trkpt lat="58.73151968233287" lon="16.94040390662849">
        <ele>50.92</ele>
        <time>2025-01-27T12:20:47.059Z</time>
      </trkpt>
      <trkpt lat="58.73139194212854" lon="16.940605994313955">
        <ele>50.43</ele>
        <time>2025-01-27T12:20:58.126Z</time>
      </trkpt>
      <trkpt lat="58.731339974328876" lon="16.94070791825652">
        <ele>49.96</ele>
        <time>2025-01-27T12:21:09.203Z</time>
      </trkpt>
      <trkpt lat="58.731270991265774" lon="16.940946970134974">
        <ele>49.47</ele>
        <time>2025-01-27T12:21:20.299Z</time>
      </trkpt>
      <trkpt lat="58.7311299238354" lon="16.941480981186032">
        <ele>48.98</ele>
        <time>2025-01-27T12:21:31.437Z</time>
      </trkpt>
      <trkpt lat="58.73122497461736" lon="16.941568991169333">
        <ele>48.48</ele>
        <time>2025-01-27T12:21:42.589Z</time>
      </trkpt>
      <trkpt lat="58.731320947408676" lon="16.94177996367216">
        <ele>47.95</ele>
        <time>2025-01-27T12:21:53.761Z</time>
      </trkpt>
      <trkpt lat="58.731394205242395" lon="16.942163603380322">
        <ele>47.39</ele>
        <time>2025-01-27T12:22:04.961Z</time>
      </trkpt>
      <trkpt lat="58.731466960161924" lon="16.942544979974627">
        <ele>46.88</ele>
        <time>2025-01-27T12:22:16.189Z</time>
      </trkpt>
      <trkpt lat="58.73154398985207" lon="16.942677916958928">
        <ele>46.47</ele>
        <time>2025-01-27T12:22:27.431Z</time>
      </trkpt>
      <trkpt lat="58.73165597207844" lon="16.94276894442737">
        <ele>46.11</ele>
        <time>2025-01-27T12:22:38.689Z</time>
      </trkpt>
      <trkpt lat="58.73186627402902" lon="16.942730890586972">
        <ele>45.86</ele>
        <time>2025-01-27T12:22:49.976Z</time>
      </trkpt>
      <trkpt lat="58.73207598924637" lon="16.942692920565605">
        <ele>45.68</ele>
        <time>2025-01-27T12:23:01.291Z</time>
      </trkpt>
      <trkpt lat="58.732266342267394" lon="16.942913364619017">
        <ele>45.36</ele>
        <time>2025-01-27T12:23:12.635Z</time>
      </trkpt>
      <trkpt lat="58.73245669528842" lon="16.943133808672428">
        <ele>45.08</ele>
        <time>2025-01-27T12:23:24.009Z</time>
      </trkpt>
      <trkpt lat="58.73264595866203" lon="16.943352995440364">
        <ele>44.86</ele>
        <time>2025-01-27T12:23:35.413Z</time>
      </trkpt>
      <trkpt lat="58.732727179303765" lon="16.943638315424323">
        <ele>44.66</ele>
        <time>2025-01-27T12:23:46.839Z</time>
      </trkpt>
      <trkpt lat="58.73280798085034" lon="16.943921959027648">
        <ele>44.48</ele>
        <time>2025-01-27T12:23:58.288Z</time>
      </trkpt>
      <trkpt lat="58.73297528363764" lon="16.94412086158991">
        <ele>44.4</ele>
        <time>2025-01-27T12:24:09.763Z</time>
      </trkpt>
      <trkpt lat="58.733141999691725" lon="16.944318925961852">
        <ele>44.39</ele>
        <time>2025-01-27T12:24:21.264Z</time>
      </trkpt>
      <trkpt lat="58.733403850346804" lon="16.944383550435305">
        <ele>44.46</ele>
        <time>2025-01-27T12:24:32.800Z</time>
      </trkpt>
      <trkpt lat="58.7336649466306" lon="16.944447923451662">
        <ele>44.61</ele>
        <time>2025-01-27T12:24:44.372Z</time>
      </trkpt>
      <trkpt lat="58.733862256631255" lon="16.944586979225278">
        <ele>44.8</ele>
        <time>2025-01-27T12:24:55.972Z</time>
      </trkpt>
      <trkpt lat="58.73386234045029" lon="16.94458706304431">
        <ele>44.99</ele>
        <time>2025-01-27T12:25:07.572Z</time>
      </trkpt>
      <trkpt lat="58.73386250808835" lon="16.94458714686334">
        <ele>45.1</ele>
        <time>2025-01-27T12:25:19.172Z</time>
      </trkpt>
      <trkpt lat="58.73386234045029" lon="16.94458706304431">
        <ele>44.99</ele>
        <time>2025-01-27T12:25:30.772Z</time>
      </trkpt>
      <trkpt lat="58.73386301100254" lon="16.9445875659585">
        <ele>45.3</ele>
        <time>2025-01-27T12:25:42.372Z</time>
      </trkpt>
      <trkpt lat="58.733863262459636" lon="16.944587733596563">
        <ele>45.39</ele>
        <time>2025-01-27T12:25:53.972Z</time>
      </trkpt>
      <trkpt lat="58.73406099155545" lon="16.944726957008243">
        <ele>45.54</ele>
        <time>2025-01-27T12:26:05.600Z</time>
      </trkpt>
      <trkpt lat="58.7343158852309" lon="16.944915801286697">
        <ele>45.63</ele>
        <time>2025-01-27T12:26:17.265Z</time>
      </trkpt>
      <trkpt lat="58.73457086272538" lon="16.94510456174612">
        <ele>45.63</ele>
        <time>2025-01-27T12:26:28.966Z</time>
      </trkpt>
      <trkpt lat="58.734825756400824" lon="16.945293406024575">
        <ele>45.67</ele>
        <time>2025-01-27T12:26:40.704Z</time>
      </trkpt>
      <trkpt lat="58.735078973695636" lon="16.945480993017554">
        <ele>45.68</ele>
        <time>2025-01-27T12:26:52.478Z</time>
      </trkpt>
      <trkpt lat="58.73519598506391" lon="16.945632956922054">
        <ele>45.64</ele>
        <time>2025-01-27T12:27:04.271Z</time>
      </trkpt>
      <trkpt lat="58.735247952863574" lon="16.94592892192304">
        <ele>45.64</ele>
        <time>2025-01-27T12:27:16.085Z</time>
      </trkpt>
      <trkpt lat="58.73515692539513" lon="16.946451952680945">
        <ele>45.68</ele>
        <time>2025-01-27T12:27:27.938Z</time>
      </trkpt>
      <trkpt lat="58.73511493206024" lon="16.94684992544353">
        <ele>45.82</ele>
        <time>2025-01-27T12:27:39.819Z</time>
      </trkpt>
      <trkpt lat="58.7352863419801" lon="16.947101466357708">
        <ele>45.9</ele>
        <time>2025-01-27T12:27:51.729Z</time>
      </trkpt>
      <trkpt lat="58.73545699752867" lon="16.947351917624474">
        <ele>46.01</ele>
        <time>2025-01-27T12:28:03.668Z</time>
      </trkpt>
      <trkpt lat="58.73560493811965" lon="16.947606978937984">
        <ele>46.14</ele>
        <time>2025-01-27T12:28:15.633Z</time>
      </trkpt>
      <trkpt lat="58.73567618429661" lon="16.94809346459806">
        <ele>46.32</ele>
        <time>2025-01-27T12:28:27.633Z</time>
      </trkpt>
      <trkpt lat="58.735747430473566" lon="16.948580034077168">
        <ele>46.5</ele>
        <time>2025-01-27T12:28:39.668Z</time>
      </trkpt>
      <trkpt lat="58.73581792227924" lon="16.94906199350953">
        <ele>46.71</ele>
        <time>2025-01-27T12:28:51.738Z</time>
      </trkpt>
      <trkpt lat="58.73578632250428" lon="16.949560549110174">
        <ele>46.89</ele>
        <time>2025-01-27T12:29:03.843Z</time>
      </trkpt>
      <trkpt lat="58.73575497418642" lon="16.950055919587612">
        <ele>47.12</ele>
        <time>2025-01-27T12:29:15.983Z</time>
      </trkpt>
      <trkpt lat="58.735860250890255" lon="16.95044375024736">
        <ele>47.4</ele>
        <time>2025-01-27T12:29:28.153Z</time>
      </trkpt>
      <trkpt lat="58.73596552759409" lon="16.950831497088075">
        <ele>47.79</ele>
        <time>2025-01-27T12:29:40.354Z</time>
      </trkpt>
      <trkpt lat="58.73606996610761" lon="16.951215974986553">
        <ele>48.19</ele>
        <time>2025-01-27T12:29:52.585Z</time>
      </trkpt>
      <trkpt lat="58.7360979616642" lon="16.951792985200882">
        <ele>48.59</ele>
        <time>2025-01-27T12:30:04.856Z</time>
      </trkpt>
      <trkpt lat="58.73600693419576" lon="16.952202944085002">
        <ele>48.95</ele>
        <time>2025-01-27T12:30:17.158Z</time>
      </trkpt>
      <trkpt lat="58.73580006882548" lon="16.952350717037916">
        <ele>49.3</ele>
        <time>2025-01-27T12:30:29.489Z</time>
      </trkpt>
      <trkpt lat="58.735593957826495" lon="16.95249798707664">
        <ele>49.58</ele>
        <time>2025-01-27T12:30:41.850Z</time>
      </trkpt>
      <trkpt lat="58.73544920235872" lon="16.95295723155141">
        <ele>49.96</ele>
        <time>2025-01-27T12:30:54.248Z</time>
      </trkpt>
      <trkpt lat="58.73530444689095" lon="16.95341655984521">
        <ele>50.28</ele>
        <time>2025-01-27T12:31:06.683Z</time>
      </trkpt>
      <trkpt lat="58.73516094870865" lon="16.95387194864452">
        <ele>50.5</ele>
        <time>2025-01-27T12:31:19.155Z</time>
      </trkpt>
      <trkpt lat="58.73500102199614" lon="16.954217785969377">
        <ele>50.62</ele>
        <time>2025-01-27T12:31:31.660Z</time>
      </trkpt>
      <trkpt lat="58.734841933473945" lon="16.9545619469136">
        <ele>50.61</ele>
        <time>2025-01-27T12:31:44.197Z</time>
      </trkpt>
      <trkpt lat="58.73481393791735" lon="16.95497198961675">
        <ele>50.48</ele>
        <time>2025-01-27T12:31:56.762Z</time>
      </trkpt>
      <trkpt lat="58.73461897484958" lon="16.955137951299548">
        <ele>50.27</ele>
        <time>2025-01-27T12:32:09.356Z</time>
      </trkpt>
      <trkpt lat="58.734562983736396" lon="16.955454954877496">
        <ele>49.87</ele>
        <time>2025-01-27T12:32:21.973Z</time>
      </trkpt>
      <trkpt lat="58.73470497317612" lon="16.955686965957284">
        <ele>49.24</ele>
        <time>2025-01-27T12:32:34.615Z</time>
      </trkpt>
      <trkpt lat="58.73483992181718" lon="16.955878995358944">
        <ele>48.47</ele>
        <time>2025-01-27T12:32:47.280Z</time>
      </trkpt>
      <trkpt lat="58.73502432368696" lon="16.95611243136227">
        <ele>47.54</ele>
        <time>2025-01-27T12:32:59.974Z</time>
      </trkpt>
      <trkpt lat="58.735207971185446" lon="16.95634494535625">
        <ele>46.38</ele>
        <time>2025-01-27T12:33:12.697Z</time>
      </trkpt>
      <trkpt lat="58.73546336777508" lon="16.956505877897143">
        <ele>45.01</ele>
        <time>2025-01-27T12:33:25.456Z</time>
      </trkpt>
      <trkpt lat="58.73571876436472" lon="16.956666810438037">
        <ele>43.48</ele>
        <time>2025-01-27T12:33:38.251Z</time>
      </trkpt>
      <trkpt lat="58.73597298748791" lon="16.956826988607645">
        <ele>41.83</ele>
        <time>2025-01-27T12:33:51.082Z</time>
      </trkpt>
      <trkpt lat="58.73615596443415" lon="16.957082971930504">
        <ele>40.09</ele>
        <time>2025-01-27T12:34:03.943Z</time>
      </trkpt>
      <trkpt lat="58.73639593832195" lon="16.957436185330153">
        <ele>38.25</ele>
        <time>2025-01-27T12:34:16.845Z</time>
      </trkpt>
      <trkpt lat="58.7366349902004" lon="16.957787973806262">
        <ele>36.26</ele>
        <time>2025-01-27T12:34:29.787Z</time>
      </trkpt>
      <trkpt lat="58.73682199046016" lon="16.957985954359174">
        <ele>34.24</ele>
        <time>2025-01-27T12:34:42.757Z</time>
      </trkpt>
      <trkpt lat="58.73703329823911" lon="16.958168763667345">
        <ele>32.2</ele>
        <time>2025-01-27T12:34:55.758Z</time>
      </trkpt>
      <trkpt lat="58.73724393546581" lon="16.958350986242294">
        <ele>30.02</ele>
        <time>2025-01-27T12:35:08.790Z</time>
      </trkpt>
      <trkpt lat="58.7374709174037" lon="16.95840898901224">
        <ele>27.76</ele>
        <time>2025-01-27T12:35:21.853Z</time>
      </trkpt>
      <trkpt lat="58.737677950412035" lon="16.95834193378687">
        <ele>25.39</ele>
        <time>2025-01-27T12:35:34.944Z</time>
      </trkpt>
      <trkpt lat="58.737873919308186" lon="16.95821394212544">
        <ele>22.94</ele>
        <time>2025-01-27T12:35:48.063Z</time>
      </trkpt>
      <trkpt lat="58.73812478967011" lon="16.95789534598589">
        <ele>20.46</ele>
        <time>2025-01-27T12:36:01.222Z</time>
      </trkpt>
      <trkpt lat="58.738375660032034" lon="16.957576666027308">
        <ele>17.8</ele>
        <time>2025-01-27T12:36:14.421Z</time>
      </trkpt>
      <trkpt lat="58.738624937832355" lon="16.957259997725487">
        <ele>15.29</ele>
        <time>2025-01-27T12:36:27.660Z</time>
      </trkpt>
      <trkpt lat="58.738750917837024" lon="16.957129994407296">
        <ele>13.03</ele>
        <time>2025-01-27T12:36:40.918Z</time>
      </trkpt>
      <trkpt lat="58.73889693059027" lon="16.95705296471715">
        <ele>10.83</ele>
        <time>2025-01-27T12:36:54.196Z</time>
      </trkpt>
      <trkpt lat="58.73920219950378" lon="16.957172406837344">
        <ele>8.61</ele>
        <time>2025-01-27T12:37:07.516Z</time>
      </trkpt>
      <trkpt lat="58.739507384598255" lon="16.95729184895754">
        <ele>6.8</ele>
        <time>2025-01-27T12:37:20.878Z</time>
      </trkpt>
      <trkpt lat="58.73981265351176" lon="16.957411291077733">
        <ele>5.33</ele>
        <time>2025-01-27T12:37:34.281Z</time>
      </trkpt>
      <trkpt lat="58.74011599458754" lon="16.957529978826642">
        <ele>4.07</ele>
        <time>2025-01-27T12:37:47.726Z</time>
      </trkpt>
      <trkpt lat="58.74021993018687" lon="16.957558980211616">
        <ele>3.01</ele>
        <time>2025-01-27T12:38:01.185Z</time>
      </trkpt>
      <trkpt lat="58.740377174690366" lon="16.95758848451078">
        <ele>2.15</ele>
        <time>2025-01-27T12:38:14.665Z</time>
      </trkpt>
      <trkpt lat="58.740533916279674" lon="16.957617988809943">
        <ele>1.49</ele>
        <time>2025-01-27T12:38:28.166Z</time>
      </trkpt>
      <trkpt lat="58.74070297926664" lon="16.957649923861027">
        <ele>1.02</ele>
        <time>2025-01-27T12:38:41.689Z</time>
      </trkpt>
      <trkpt lat="58.74075897037983" lon="16.957621928304434">
        <ele>0.72</ele>
        <time>2025-01-27T12:38:55.220Z</time>
      </trkpt>
      <trkpt lat="58.74094278551638" lon="16.957528805360198">
        <ele>0.57</ele>
        <time>2025-01-27T12:39:08.777Z</time>
      </trkpt>
      <trkpt lat="58.74112593010068" lon="16.957435933873057">
        <ele>0.57</ele>
        <time>2025-01-27T12:39:22.359Z</time>
      </trkpt>
      <trkpt lat="58.741397419944406" lon="16.957306768745184">
        <ele>0.64</ele>
        <time>2025-01-27T12:39:35.978Z</time>
      </trkpt>
      <trkpt lat="58.7416688259691" lon="16.95717751979828">
        <ele>0.85</ele>
        <time>2025-01-27T12:39:49.635Z</time>
      </trkpt>
      <trkpt lat="58.74193897470832" lon="16.957048941403627">
        <ele>1.17</ele>
        <time>2025-01-27T12:40:03.329Z</time>
      </trkpt>
      <trkpt lat="58.74216235242784" lon="16.956913406029344">
        <ele>1.67</ele>
        <time>2025-01-27T12:40:17.054Z</time>
      </trkpt>
      <trkpt lat="58.74238573014736" lon="16.95677787065506">
        <ele>2.26</ele>
        <time>2025-01-27T12:40:30.810Z</time>
      </trkpt>
      <trkpt lat="58.74260793440044" lon="16.956642922013998">
        <ele>2.92</ele>
        <time>2025-01-27T12:40:44.598Z</time>
      </trkpt>
      <trkpt lat="58.742685969918966" lon="16.956573938950896">
        <ele>3.44</ele>
        <time>2025-01-27T12:40:58.397Z</time>
      </trkpt>
      <trkpt lat="58.74284983612597" lon="16.956958416849375">
        <ele>3.83</ele>
        <time>2025-01-27T12:41:12.231Z</time>
      </trkpt>
      <trkpt lat="58.74301294796169" lon="16.957340966910124">
        <ele>4.09</ele>
        <time>2025-01-27T12:41:26.099Z</time>
      </trkpt>
      <trkpt lat="58.74322224408388" lon="16.9577928353101">
        <ele>4.28</ele>
        <time>2025-01-27T12:41:40.009Z</time>
      </trkpt>
      <trkpt lat="58.743431540206075" lon="16.95824470371008">
        <ele>4.62</ele>
        <time>2025-01-27T12:41:53.961Z</time>
      </trkpt>
      <trkpt lat="58.743640752509236" lon="16.958696572110057">
        <ele>4.91</ele>
        <time>2025-01-27T12:42:07.955Z</time>
      </trkpt>
      <trkpt lat="58.74384795315564" lon="16.959143998101354">
        <ele>5.22</ele>
        <time>2025-01-27T12:42:21.991Z</time>
      </trkpt>
      <trkpt lat="58.74400804750621" lon="16.959563428536057">
        <ele>5.49</ele>
        <time>2025-01-27T12:42:36.063Z</time>
      </trkpt>
      <trkpt lat="58.74416814185679" lon="16.95998285897076">
        <ele>5.71</ele>
        <time>2025-01-27T12:42:50.171Z</time>
      </trkpt>
      <trkpt lat="58.74432697892189" lon="16.960398936644197">
        <ele>5.91</ele>
        <time>2025-01-27T12:43:04.315Z</time>
      </trkpt>
      <trkpt lat="58.74447206966579" lon="16.960929846391082">
        <ele>6.05</ele>
        <time>2025-01-27T12:43:18.501Z</time>
      </trkpt>
      <trkpt lat="58.74461716040969" lon="16.961460672318935">
        <ele>6.24</ele>
        <time>2025-01-27T12:43:32.728Z</time>
      </trkpt>
      <trkpt lat="58.74476099386811" lon="16.961986972019076">
        <ele>6.37</ele>
        <time>2025-01-27T12:43:46.997Z</time>
      </trkpt>
      <trkpt lat="58.74485076405108" lon="16.962515115737915">
        <ele>6.5</ele>
        <time>2025-01-27T12:44:01.304Z</time>
      </trkpt>
      <trkpt lat="58.74494061805308" lon="16.963043343275785">
        <ele>6.76</ele>
        <time>2025-01-27T12:44:15.650Z</time>
      </trkpt>
      <trkpt lat="58.74503047205508" lon="16.963571486994624">
        <ele>7.07</ele>
        <time>2025-01-27T12:44:30.035Z</time>
      </trkpt>
      <trkpt lat="58.74512032605708" lon="16.964099714532495">
        <ele>7.45</ele>
        <time>2025-01-27T12:44:44.458Z</time>
      </trkpt>
      <trkpt lat="58.745210180059075" lon="16.964627858251333">
        <ele>7.83</ele>
        <time>2025-01-27T12:44:58.920Z</time>
      </trkpt>
      <trkpt lat="58.74529802240431" lon="16.96514518931508">
        <ele>8.32</ele>
        <time>2025-01-27T12:45:13.420Z</time>
      </trkpt>
      <trkpt lat="58.745298106223345" lon="16.965145356953144">
        <ele>9.25</ele>
        <time>2025-01-27T12:45:27.920Z</time>
      </trkpt>
      <trkpt lat="58.74529827386141" lon="16.96514619514346">
        <ele>9.79</ele>
        <time>2025-01-27T12:45:42.420Z</time>
      </trkpt>
      <trkpt lat="58.74529827386141" lon="16.965145859867334">
        <ele>10.38</ele>
        <time>2025-01-27T12:45:56.920Z</time>
      </trkpt>
      <trkpt lat="58.7452985253185" lon="16.965147368609905">
        <ele>11.02</ele>
        <time>2025-01-27T12:46:11.420Z</time>
      </trkpt>
      <trkpt lat="58.745300034061074" lon="16.965156085789204">
        <ele>11.71</ele>
        <time>2025-01-27T12:46:25.920Z</time>
      </trkpt>
      <trkpt lat="58.74538988806307" lon="16.965684229508042">
        <ele>12.62</ele>
        <time>2025-01-27T12:46:40.459Z</time>
      </trkpt>
      <trkpt lat="58.74547965824604" lon="16.966212457045913">
        <ele>13.54</ele>
        <time>2025-01-27T12:46:55.037Z</time>
      </trkpt>
      <trkpt lat="58.74556699767709" lon="16.9667259324342">
        <ele>14.3</ele>
        <time>2025-01-27T12:47:09.652Z</time>
      </trkpt>
      <trkpt lat="58.74565022997558" lon="16.967068500816822">
        <ele>15.01</ele>
        <time>2025-01-27T12:47:24.293Z</time>
      </trkpt>
      <trkpt lat="58.745732959359884" lon="16.96740897372365">
        <ele>15.78</ele>
        <time>2025-01-27T12:47:38.961Z</time>
      </trkpt>
      <trkpt lat="58.74586598016322" lon="16.967916917055845">
        <ele>16.73</ele>
        <time>2025-01-27T12:47:53.668Z</time>
      </trkpt>
      <trkpt lat="58.74598785303533" lon="16.968416394665837">
        <ele>17.65</ele>
        <time>2025-01-27T12:48:08.413Z</time>
      </trkpt>
      <trkpt lat="58.74610897153616" lon="16.96891293860972">
        <ele>18.33</ele>
        <time>2025-01-27T12:48:23.197Z</time>
      </trkpt>
      <trkpt lat="58.74618189409375" lon="16.969492128118873">
        <ele>19.0</ele>
        <time>2025-01-27T12:48:38.022Z</time>
      </trkpt>
      <trkpt lat="58.74625473283231" lon="16.970071317628026">
        <ele>19.53</ele>
        <time>2025-01-27T12:48:52.888Z</time>
      </trkpt>
      <trkpt lat="58.74632698483765" lon="16.970644975081086">
        <ele>19.93</ele>
        <time>2025-01-27T12:49:07.795Z</time>
      </trkpt>
      <trkpt lat="58.74636906199157" lon="16.971044205129147">
        <ele>20.26</ele>
        <time>2025-01-27T12:49:22.731Z</time>
      </trkpt>
      <trkpt lat="58.74641097150743" lon="16.971440920606256">
        <ele>20.54</ele>
        <time>2025-01-27T12:49:37.695Z</time>
      </trkpt>
      <trkpt lat="58.74644793570042" lon="16.971650971099734">
        <ele>20.69</ele>
        <time>2025-01-27T12:49:52.674Z</time>
      </trkpt>
      <trkpt lat="58.746486995369196" lon="16.971846939995885">
        <ele>20.75</ele>
        <time>2025-01-27T12:50:07.668Z</time>
      </trkpt>
      <trkpt lat="58.74658891931176" lon="16.97217894718051">
        <ele>20.7</ele>
        <time>2025-01-27T12:50:22.689Z</time>
      </trkpt>
      <trkpt lat="58.74663099646568" lon="16.97224793024361">
        <ele>20.63</ele>
        <time>2025-01-27T12:50:37.717Z</time>
      </trkpt>
      <trkpt lat="58.74670693650842" lon="16.972319930791855">
        <ele>20.51</ele>
        <time>2025-01-27T12:50:52.756Z</time>
      </trkpt>
      <trkpt lat="58.746728310361505" lon="16.972351279109716">
        <ele>20.31</ele>
        <time>2025-01-27T12:51:07.799Z</time>
      </trkpt>
      <trkpt lat="58.74673694372177" lon="16.972363935783505">
        <ele>20.07</ele>
        <time>2025-01-27T12:51:22.843Z</time>
      </trkpt>
      <trkpt lat="58.74675496481359" lon="16.972450939938426">
        <ele>19.76</ele>
        <time>2025-01-27T12:51:37.894Z</time>
      </trkpt>
      <trkpt lat="58.74677399173379" lon="16.972537944093347">
        <ele>19.4</ele>
        <time>2025-01-27T12:51:52.951Z</time>
      </trkpt>
      <trkpt lat="58.74675094150007" lon="16.97256593964994">
        <ele>19.02</ele>
        <time>2025-01-27T12:52:08.012Z</time>
      </trkpt>
      <trkpt lat="58.74673292040825" lon="16.97262796573341">
        <ele>18.6</ele>
        <time>2025-01-27T12:52:23.078Z</time>
      </trkpt>
      <trkpt lat="58.74673593789339" lon="16.972820917144418">
        <ele>18.08</ele>
        <time>2025-01-27T12:52:38.157Z</time>
      </trkpt>
      <trkpt lat="58.74674892984331" lon="16.972916973754764">
        <ele>17.59</ele>
        <time>2025-01-27T12:52:53.243Z</time>
      </trkpt>
      <trkpt lat="58.74681699089706" lon="16.973129957914352">
        <ele>17.12</ele>
        <time>2025-01-27T12:53:08.347Z</time>
      </trkpt>
      <trkpt lat="58.74687599949539" lon="16.973343947902322">
        <ele>16.66</ele>
        <time>2025-01-27T12:53:23.467Z</time>
      </trkpt>
      <trkpt lat="58.746958980336785" lon="16.97377192787826">
        <ele>16.18</ele>
        <time>2025-01-27T12:53:38.619Z</time>
      </trkpt>
      <trkpt lat="58.747087977826595" lon="16.974229998886585">
        <ele>15.72</ele>
        <time>2025-01-27T12:53:53.807Z</time>
      </trkpt>
      <trkpt lat="58.747128965333104" lon="16.97439193725586">
        <ele>15.27</ele>
        <time>2025-01-27T12:54:09.008Z</time>
      </trkpt>
      <trkpt lat="58.74717892147601" lon="16.974644986912608">
        <ele>14.83</ele>
        <time>2025-01-27T12:54:24.228Z</time>
      </trkpt>
      <trkpt lat="58.74724698252976" lon="16.97486693970859">
        <ele>14.4</ele>
        <time>2025-01-27T12:54:39.466Z</time>
      </trkpt>
      <trkpt lat="58.747364496812224" lon="16.975325513631105">
        <ele>13.99</ele>
        <time>2025-01-27T12:54:54.739Z</time>
      </trkpt>
      <trkpt lat="58.74748201109469" lon="16.97578400373459">
        <ele>13.61</ele>
        <time>2025-01-27T12:55:10.048Z</time>
      </trkpt>
      <trkpt lat="58.747599609196186" lon="16.976242577657104">
        <ele>13.25</ele>
        <time>2025-01-27T12:55:25.392Z</time>
      </trkpt>
      <trkpt lat="58.74771712347865" lon="16.976701067760587">
        <ele>12.81</ele>
        <time>2025-01-27T12:55:40.772Z</time>
      </trkpt>
      <trkpt lat="58.74783296138048" lon="16.977152936160564">
        <ele>12.37</ele>
        <time>2025-01-27T12:55:56.187Z</time>
      </trkpt>
      <trkpt lat="58.74794293195009" lon="16.977670937776566">
        <ele>11.84</ele>
        <time>2025-01-27T12:56:11.641Z</time>
      </trkpt>
      <trkpt lat="58.74799699522555" lon="16.977853998541832">
        <ele>11.51</ele>
        <time>2025-01-27T12:56:27.109Z</time>
      </trkpt>
      <trkpt lat="58.748056925833225" lon="16.97800495661795">
        <ele>11.18</ele>
        <time>2025-01-27T12:56:42.590Z</time>
      </trkpt>
      <trkpt lat="58.748097997158766" lon="16.97815197519958">
        <ele>10.88</ele>
        <time>2025-01-27T12:56:58.083Z</time>
      </trkpt>
      <trkpt lat="58.74822833575308" lon="16.978673245757818">
        <ele>10.69</ele>
        <time>2025-01-27T12:57:13.616Z</time>
      </trkpt>
      <trkpt lat="58.74835875816643" lon="16.979194600135088">
        <ele>10.47</ele>
        <time>2025-01-27T12:57:29.189Z</time>
      </trkpt>
      <trkpt lat="58.74848909676075" lon="16.979715954512358">
        <ele>10.21</ele>
        <time>2025-01-27T12:57:44.803Z</time>
      </trkpt>
      <trkpt lat="58.7486195191741" lon="16.980237225070596">
        <ele>9.95</ele>
        <time>2025-01-27T12:58:00.457Z</time>
      </trkpt>
      <trkpt lat="58.74874792993069" lon="16.98075095191598">
        <ele>9.61</ele>
        <time>2025-01-27T12:58:16.150Z</time>
      </trkpt>
      <trkpt lat="58.74883568845689" lon="16.98107843287289">
        <ele>9.28</ele>
        <time>2025-01-27T12:58:31.869Z</time>
      </trkpt>
      <trkpt lat="58.74892294406891" lon="16.981403985992074">
        <ele>9.02</ele>
        <time>2025-01-27T12:58:47.613Z</time>
      </trkpt>
      <trkpt lat="58.748981952667236" lon="16.981578916311264">
        <ele>8.79</ele>
        <time>2025-01-27T12:59:03.372Z</time>
      </trkpt>
      <trkpt lat="58.74905395321548" lon="16.98176398873329">
        <ele>8.57</ele>
        <time>2025-01-27T12:59:19.147Z</time>
      </trkpt>
      <trkpt lat="58.749103993177414" lon="16.981857949867845">
        <ele>8.37</ele>
        <time>2025-01-27T12:59:34.931Z</time>
      </trkpt>
      <trkpt lat="58.749258974567056" lon="16.982056936249137">
        <ele>8.16</ele>
        <time>2025-01-27T12:59:50.740Z</time>
      </trkpt>
      <trkpt lat="58.7493119481951" lon="16.982098929584026">
        <ele>7.99</ele>
        <time>2025-01-27T13:00:06.557Z</time>
      </trkpt>
      <trkpt lat="58.74943893402815" lon="16.982162967324257">
        <ele>7.83</ele>
        <time>2025-01-27T13:00:22.391Z</time>
      </trkpt>
      <trkpt lat="58.74950598925352" lon="16.98216891847551">
        <ele>7.7</ele>
        <time>2025-01-27T13:00:38.234Z</time>
      </trkpt>
      <trkpt lat="58.74957296065986" lon="16.982198925688863">
        <ele>7.61</ele>
        <time>2025-01-27T13:00:54.087Z</time>
      </trkpt>
      <trkpt lat="58.74971595592797" lon="16.982262963429093">
        <ele>7.57</ele>
        <time>2025-01-27T13:01:09.959Z</time>
      </trkpt>
      <trkpt lat="58.74975996091962" lon="16.982293976470828">
        <ele>7.51</ele>
        <time>2025-01-27T13:01:25.837Z</time>
      </trkpt>
      <trkpt lat="58.749792985618114" lon="16.98236497119069">
        <ele>7.45</ele>
        <time>2025-01-27T13:01:41.722Z</time>
      </trkpt>
      <trkpt lat="58.74981192871928" lon="16.982482988387346">
        <ele>7.38</ele>
        <time>2025-01-27T13:01:57.616Z</time>
      </trkpt>
      <trkpt lat="58.749815952032804" lon="16.982616931200027">
        <ele>7.32</ele>
        <time>2025-01-27T13:02:13.519Z</time>
      </trkpt>
      <trkpt lat="58.74978192150593" lon="16.983101991936564">
        <ele>7.25</ele>
        <time>2025-01-27T13:02:29.456Z</time>
      </trkpt>
      <trkpt lat="58.7497419398278" lon="16.983614964410663">
        <ele>7.16</ele>
        <time>2025-01-27T13:02:45.429Z</time>
      </trkpt>
      <trkpt lat="58.749773958697915" lon="16.98388796299696">
        <ele>7.05</ele>
        <time>2025-01-27T13:03:01.421Z</time>
      </trkpt>
      <trkpt lat="58.749814946204424" lon="16.984065994620323">
        <ele>6.96</ele>
        <time>2025-01-27T13:03:17.427Z</time>
      </trkpt>
      <trkpt lat="58.74983196146786" lon="16.984196919947863">
        <ele>6.87</ele>
        <time>2025-01-27T13:03:33.442Z</time>
      </trkpt>
      <trkpt lat="58.74983296729624" lon="16.984334969893098">
        <ele>6.8</ele>
        <time>2025-01-27T13:03:49.467Z</time>
      </trkpt>
      <trkpt lat="58.749816957861185" lon="16.98481097817421">
        <ele>6.72</ele>
        <time>2025-01-27T13:04:05.525Z</time>
      </trkpt>
      <trkpt lat="58.74981192871928" lon="16.98491499759257">
        <ele>6.65</ele>
        <time>2025-01-27T13:04:21.590Z</time>
      </trkpt>
      <trkpt lat="58.749816957861185" lon="16.98504894040525">
        <ele>6.58</ele>
        <time>2025-01-27T13:04:37.665Z</time>
      </trkpt>
      <trkpt lat="58.749834978953004" lon="16.98516092263162">
        <ele>6.49</ele>
        <time>2025-01-27T13:04:53.748Z</time>
      </trkpt>
      <trkpt lat="58.74988996423781" lon="16.985342977568507">
        <ele>6.36</ele>
        <time>2025-01-27T13:05:09.845Z</time>
      </trkpt>
      <trkpt lat="58.75000295229256" lon="16.985796941444278">
        <ele>6.21</ele>
        <time>2025-01-27T13:05:25.977Z</time>
      </trkpt>
      <trkpt lat="58.75006891787052" lon="16.9859719555825">
        <ele>6.08</ele>
        <time>2025-01-27T13:05:42.124Z</time>
      </trkpt>
      <trkpt lat="58.75016497448087" lon="16.986159961670637">
        <ele>5.91</ele>
        <time>2025-01-27T13:05:58.290Z</time>
      </trkpt>
      <trkpt lat="58.750224988907576" lon="16.986327935010195">
        <ele>5.79</ele>
        <time>2025-01-27T13:06:14.470Z</time>
      </trkpt>
      <trkpt lat="58.7502599414438" lon="16.98642591945827">
        <ele>5.71</ele>
        <time>2025-01-27T13:06:30.658Z</time>
      </trkpt>
      <trkpt lat="58.75025893561542" lon="16.986493980512023">
        <ele>5.65</ele>
        <time>2025-01-27T13:06:46.851Z</time>
      </trkpt>
      <trkpt lat="58.75023596920073" lon="16.98664292693138">
        <ele>5.62</ele>
        <time>2025-01-27T13:07:03.055Z</time>
      </trkpt>
      <trkpt lat="58.750248961150646" lon="16.98674594052136">
        <ele>5.61</ele>
        <time>2025-01-27T13:07:19.266Z</time>
      </trkpt>
      <trkpt lat="58.75025097280741" lon="16.98683294467628">
        <ele>5.65</ele>
        <time>2025-01-27T13:07:35.483Z</time>
      </trkpt>
      <trkpt lat="58.750289948657155" lon="16.986840991303325">
        <ele>5.72</ele>
        <time>2025-01-27T13:07:51.705Z</time>
      </trkpt>
      <trkpt lat="58.75034392811358" lon="16.98709395714104">
        <ele>5.83</ele>
        <time>2025-01-27T13:08:07.946Z</time>
      </trkpt>
      <trkpt lat="58.75035893172026" lon="16.987147936597466">
        <ele>6.0</ele>
        <time>2025-01-27T13:08:24.192Z</time>
      </trkpt>
      <trkpt lat="58.75038399361074" lon="16.987188924103975">
        <ele>6.21</ele>
        <time>2025-01-27T13:08:40.442Z</time>
      </trkpt>
      <trkpt lat="58.75047594308853" lon="16.98724198155105">
        <ele>6.49</ele>
        <time>2025-01-27T13:08:56.705Z</time>
      </trkpt>
      <trkpt lat="58.75077945180237" lon="16.987370811402798">
        <ele>6.84</ele>
        <time>2025-01-27T13:09:13.009Z</time>
      </trkpt>
      <trkpt lat="58.75108287669718" lon="16.987499725073576">
        <ele>7.19</ele>
        <time>2025-01-27T13:09:29.355Z</time>
      </trkpt>
      <trkpt lat="58.751384960487485" lon="16.9876279681921">
        <ele>7.63</ele>
        <time>2025-01-27T13:09:45.742Z</time>
      </trkpt>
      <trkpt lat="58.751406921073794" lon="16.98743199929595">
        <ele>8.11</ele>
        <time>2025-01-27T13:10:02.143Z</time>
      </trkpt>
      <trkpt lat="58.75160498544574" lon="16.987507939338684">
        <ele>8.61</ele>
        <time>2025-01-27T13:10:18.571Z</time>
      </trkpt>
      <trkpt lat="58.75167991966009" lon="16.987536940723658">
        <ele>9.1</ele>
        <time>2025-01-27T13:10:35.009Z</time>
      </trkpt>
      <trkpt lat="58.751661982387304" lon="16.987719917669892">
        <ele>9.59</ele>
        <time>2025-01-27T13:10:51.460Z</time>
      </trkpt>
      <trkpt lat="58.751925928518176" lon="16.987827960401773">
        <ele>10.2</ele>
        <time>2025-01-27T13:11:07.947Z</time>
      </trkpt>
      <trkpt lat="58.75211091712117" lon="16.987838940694928">
        <ele>10.81</ele>
        <time>2025-01-27T13:11:24.459Z</time>
      </trkpt>
      <trkpt lat="58.75240596011281" lon="16.987967183813453">
        <ele>11.44</ele>
        <time>2025-01-27T13:11:41.012Z</time>
      </trkpt>
      <trkpt lat="58.75269999727607" lon="16.988094924017787">
        <ele>11.97</ele>
        <time>2025-01-27T13:11:57.605Z</time>
      </trkpt>
      <trkpt lat="58.752674935385585" lon="16.988287959247828">
        <ele>12.46</ele>
        <time>2025-01-27T13:12:14.212Z</time>
      </trkpt>
      <trkpt lat="58.75271491706371" lon="16.988303968682885">
        <ele>12.9</ele>
        <time>2025-01-27T13:12:30.824Z</time>
      </trkpt>
      <trkpt lat="58.75296235084534" lon="16.988421147689223">
        <ele>13.33</ele>
        <time>2025-01-27T13:12:47.470Z</time>
      </trkpt>
      <trkpt lat="58.753208946436644" lon="16.988537991419435">
        <ele>13.77</ele>
        <time>2025-01-27T13:13:04.150Z</time>
      </trkpt>
      <trkpt lat="58.75337482430041" lon="16.988739324733615">
        <ele>14.13</ele>
        <time>2025-01-27T13:13:20.856Z</time>
      </trkpt>
      <trkpt lat="58.75353994779289" lon="16.98893998749554">
        <ele>14.3</ele>
        <time>2025-01-27T13:13:37.588Z</time>
      </trkpt>
      <trkpt lat="58.75356492586434" lon="16.98902095668018">
        <ele>14.44</ele>
        <time>2025-01-27T13:13:54.327Z</time>
      </trkpt>
      <trkpt lat="58.75381110236049" lon="16.98929814621806">
        <ele>14.48</ele>
        <time>2025-01-27T13:14:11.104Z</time>
      </trkpt>
      <trkpt lat="58.754057278856635" lon="16.989575335755944">
        <ele>14.51</ele>
        <time>2025-01-27T13:14:27.919Z</time>
      </trkpt>
      <trkpt lat="58.75430194661021" lon="16.989850932732224">
        <ele>14.62</ele>
        <time>2025-01-27T13:14:44.772Z</time>
      </trkpt>
      <trkpt lat="58.75437897630036" lon="16.989846993237734">
        <ele>14.7</ele>
        <time>2025-01-27T13:15:01.635Z</time>
      </trkpt>
      <trkpt lat="58.75445592217147" lon="16.989918993785977">
        <ele>14.72</ele>
        <time>2025-01-27T13:15:18.510Z</time>
      </trkpt>
      <trkpt lat="58.75464493408799" lon="16.990251252427697">
        <ele>14.69</ele>
        <time>2025-01-27T13:15:35.419Z</time>
      </trkpt>
      <trkpt lat="58.75483386218548" lon="16.990583511069417">
        <ele>14.69</ele>
        <time>2025-01-27T13:15:52.362Z</time>
      </trkpt>
      <trkpt lat="58.755022790282965" lon="16.990915769711137">
        <ele>14.69</ele>
        <time>2025-01-27T13:16:09.340Z</time>
      </trkpt>
      <trkpt lat="58.755209958180785" lon="16.991244927048683">
        <ele>14.65</ele>
        <time>2025-01-27T13:16:26.351Z</time>
      </trkpt>
      <trkpt lat="58.755295956507325" lon="16.991479955613613">
        <ele>14.52</ele>
        <time>2025-01-27T13:16:43.382Z</time>
      </trkpt>
      <trkpt lat="58.75537399202585" lon="16.99177097529173">
        <ele>14.32</ele>
        <time>2025-01-27T13:17:00.436Z</time>
      </trkpt>
      <trkpt lat="58.7554079387337" lon="16.992049925029278">
        <ele>14.0</ele>
        <time>2025-01-27T13:17:17.510Z</time>
      </trkpt>
      <trkpt lat="58.75541095621884" lon="16.992384949699044">
        <ele>13.74</ele>
        <time>2025-01-27T13:17:34.607Z</time>
      </trkpt>
      <trkpt lat="58.755403999239206" lon="16.992582930251956">
        <ele>13.48</ele>
        <time>2025-01-27T13:17:51.718Z</time>
      </trkpt>
      <trkpt lat="58.755326215177774" lon="16.992962127551436">
        <ele>13.14</ele>
        <time>2025-01-27T13:18:08.857Z</time>
      </trkpt>
      <trkpt lat="58.75524893403053" lon="16.99333897791803">
        <ele>12.9</ele>
        <time>2025-01-27T13:18:26.025Z</time>
      </trkpt>
      <trkpt lat="58.75516620464623" lon="16.99364986270666">
        <ele>12.74</ele>
        <time>2025-01-27T13:18:43.217Z</time>
      </trkpt>
      <trkpt lat="58.75508397817612" lon="16.993958987295628">
        <ele>12.75</ele>
        <time>2025-01-27T13:19:00.433Z</time>
      </trkpt>
      <trkpt lat="58.75504299066961" lon="16.994118997827172">
        <ele>12.84</ele>
        <time>2025-01-27T13:19:17.661Z</time>
      </trkpt>
      <trkpt lat="58.755101999267936" lon="16.99419896118343">
        <ele>13.02</ele>
        <time>2025-01-27T13:19:34.899Z</time>
      </trkpt>
      <trkpt lat="58.75526695512235" lon="16.994389984756708">
        <ele>13.36</ele>
        <time>2025-01-27T13:19:52.163Z</time>
      </trkpt>
      <trkpt lat="58.755404921248555" lon="16.994575979188085">
        <ele>13.75</ele>
        <time>2025-01-27T13:20:09.449Z</time>
      </trkpt>
      <trkpt lat="58.7554319947958" lon="16.994677986949682">
        <ele>14.0</ele>
        <time>2025-01-27T13:20:26.743Z</time>
      </trkpt>
      <trkpt lat="58.75554992817342" lon="16.99482793919742">
        <ele>14.34</ele>
        <time>2025-01-27T13:20:44.056Z</time>
      </trkpt>
      <trkpt lat="58.75552293844521" lon="16.99516899883747">
        <ele>14.54</ele>
        <time>2025-01-27T13:21:01.393Z</time>
      </trkpt>
      <trkpt lat="58.755608601495624" lon="16.995274778455496">
        <ele>14.86</ele>
        <time>2025-01-27T13:21:18.744Z</time>
      </trkpt>
      <trkpt lat="58.75573357567191" lon="16.995429256930947">
        <ele>15.08</ele>
        <time>2025-01-27T13:21:36.114Z</time>
      </trkpt>
    </trkseg>
  </trk>
</gpx>
